<?xml version="1.0" encoding="UTF-8" standalone="no" ?>
<gpx xmlns="http://www.topografix.com/GPX/1/1" xmlns:xsi="http://www.w3.org/2001/XMLSchema-instance" xsi:schemaLocation="http://www.topografix.com/GPX/1/1 http://www.topografix.com/GPX/1/1/gpx.xsd" version="1.1" creator="VisuGPX - https://www.visugpx.com">
  <metadata>
    <name>Villers St Paul plateau</name>
    <desc><![CDATA[départ, arrivé: parking du camping]]></desc>
  </metadata>
  <wpt lat="49.29266" lon="2.48568">
    <ele>98</ele>
  </wpt>
  <wpt lat="49.29344" lon="2.48465">
    <ele>104</ele>
  </wpt>
  <trk>
    <name><![CDATA[Villers St Paul plateau_1]]></name>
    <trkseg>
      <trkpt lat="49.29266" lon="2.48568">
        <ele>98</ele>
        <time>2011-09-08T11:56:54Z</time>
      </trkpt>
      <trkpt lat="49.29258" lon="2.48575">
        <ele>98</ele>
        <time>2011-09-08T11:57:11Z</time>
      </trkpt>
      <trkpt lat="49.29268" lon="2.48571">
        <ele>98</ele>
        <time>2011-09-08T11:57:57Z</time>
      </trkpt>
      <trkpt lat="49.29277" lon="2.48567">
        <ele>98</ele>
        <time>2011-09-08T11:59:33Z</time>
      </trkpt>
      <trkpt lat="49.29285" lon="2.48558">
        <ele>89</ele>
        <time>2011-09-08T11:59:41Z</time>
      </trkpt>
      <trkpt lat="49.29291" lon="2.48545">
        <ele>89</ele>
        <time>2011-09-08T12:00:03Z</time>
      </trkpt>
      <trkpt lat="49.29294" lon="2.48532">
        <ele>89</ele>
        <time>2011-09-08T12:00:13Z</time>
      </trkpt>
      <trkpt lat="49.29304" lon="2.48523">
        <ele>89</ele>
        <time>2011-09-08T12:00:19Z</time>
      </trkpt>
      <trkpt lat="49.29304" lon="2.48508">
        <ele>97</ele>
        <time>2011-09-08T12:00:29Z</time>
      </trkpt>
      <trkpt lat="49.29307" lon="2.48495">
        <ele>97</ele>
        <time>2011-09-08T12:00:38Z</time>
      </trkpt>
      <trkpt lat="49.29313" lon="2.48484">
        <ele>97</ele>
        <time>2011-09-08T12:00:47Z</time>
      </trkpt>
      <trkpt lat="49.29308" lon="2.48471">
        <ele>97</ele>
        <time>2011-09-08T12:00:57Z</time>
      </trkpt>
      <trkpt lat="49.29317" lon="2.48464">
        <ele>97</ele>
        <time>2011-09-08T12:01:07Z</time>
      </trkpt>
      <trkpt lat="49.29326" lon="2.48466">
        <ele>89</ele>
        <time>2011-09-08T12:01:17Z</time>
      </trkpt>
      <trkpt lat="49.29337" lon="2.48465">
        <ele>89</ele>
        <time>2011-09-08T12:01:25Z</time>
      </trkpt>
      <trkpt lat="49.29347" lon="2.48465">
        <ele>95</ele>
        <time>2011-09-08T12:01:30Z</time>
      </trkpt>
      <trkpt lat="49.29357" lon="2.48468">
        <ele>95</ele>
        <time>2011-09-08T12:01:44Z</time>
      </trkpt>
      <trkpt lat="49.29365" lon="2.48473">
        <ele>95</ele>
        <time>2011-09-08T12:01:59Z</time>
      </trkpt>
      <trkpt lat="49.29374" lon="2.48479">
        <ele>95</ele>
        <time>2011-09-08T12:02:08Z</time>
      </trkpt>
      <trkpt lat="49.29384" lon="2.48478">
        <ele>90</ele>
        <time>2011-09-08T12:02:18Z</time>
      </trkpt>
      <trkpt lat="49.29394" lon="2.48483">
        <ele>90</ele>
        <time>2011-09-08T12:02:27Z</time>
      </trkpt>
      <trkpt lat="49.29403" lon="2.48487">
        <ele>90</ele>
        <time>2011-09-08T12:02:34Z</time>
      </trkpt>
      <trkpt lat="49.29413" lon="2.48489">
        <ele>90</ele>
        <time>2011-09-08T12:02:43Z</time>
      </trkpt>
      <trkpt lat="49.29422" lon="2.48493">
        <ele>97</ele>
        <time>2011-09-08T12:02:52Z</time>
      </trkpt>
      <trkpt lat="49.29432" lon="2.48497">
        <ele>97</ele>
        <time>2011-09-08T12:03:02Z</time>
      </trkpt>
      <trkpt lat="49.29442" lon="2.485">
        <ele>97</ele>
        <time>2011-09-08T12:03:12Z</time>
      </trkpt>
      <trkpt lat="49.29452" lon="2.48501">
        <ele>97</ele>
        <time>2011-09-08T12:03:20Z</time>
      </trkpt>
      <trkpt lat="49.29461" lon="2.48503">
        <ele>97</ele>
        <time>2011-09-08T12:03:30Z</time>
      </trkpt>
      <trkpt lat="49.29472" lon="2.48504">
        <ele>97</ele>
        <time>2011-09-08T12:03:39Z</time>
      </trkpt>
      <trkpt lat="49.29481" lon="2.4851">
        <ele>97</ele>
        <time>2011-09-08T12:03:49Z</time>
      </trkpt>
      <trkpt lat="49.29491" lon="2.48508">
        <ele>97</ele>
        <time>2011-09-08T12:03:57Z</time>
      </trkpt>
      <trkpt lat="49.29499" lon="2.48512">
        <ele>97</ele>
        <time>2011-09-08T12:04:06Z</time>
      </trkpt>
      <trkpt lat="49.29509" lon="2.48514">
        <ele>103</ele>
        <time>2011-09-08T12:04:15Z</time>
      </trkpt>
      <trkpt lat="49.29518" lon="2.48518">
        <ele>103</ele>
        <time>2011-09-08T12:04:25Z</time>
      </trkpt>
      <trkpt lat="49.29527" lon="2.48523">
        <ele>103</ele>
        <time>2011-09-08T12:04:34Z</time>
      </trkpt>
      <trkpt lat="49.29536" lon="2.48522">
        <ele>103</ele>
        <time>2011-09-08T12:04:44Z</time>
      </trkpt>
      <trkpt lat="49.29541" lon="2.48509">
        <ele>103</ele>
        <time>2011-09-08T12:04:51Z</time>
      </trkpt>
      <trkpt lat="49.29536" lon="2.48496">
        <ele>103</ele>
        <time>2011-09-08T12:05:00Z</time>
      </trkpt>
      <trkpt lat="49.29529" lon="2.48484">
        <ele>103</ele>
        <time>2011-09-08T12:05:09Z</time>
      </trkpt>
      <trkpt lat="49.29525" lon="2.48471">
        <ele>103</ele>
        <time>2011-09-08T12:05:18Z</time>
      </trkpt>
      <trkpt lat="49.29519" lon="2.48459">
        <ele>103</ele>
        <time>2011-09-08T12:05:27Z</time>
      </trkpt>
      <trkpt lat="49.29515" lon="2.48446">
        <ele>103</ele>
        <time>2011-09-08T12:05:35Z</time>
      </trkpt>
      <trkpt lat="49.29508" lon="2.48437">
        <ele>103</ele>
        <time>2011-09-08T12:05:43Z</time>
      </trkpt>
      <trkpt lat="49.29504" lon="2.48425">
        <ele>103</ele>
        <time>2011-09-08T12:05:51Z</time>
      </trkpt>
      <trkpt lat="49.29499" lon="2.48413">
        <ele>103</ele>
        <time>2011-09-08T12:05:59Z</time>
      </trkpt>
      <trkpt lat="49.29493" lon="2.48401">
        <ele>103</ele>
        <time>2011-09-08T12:06:09Z</time>
      </trkpt>
      <trkpt lat="49.29489" lon="2.48388">
        <ele>103</ele>
        <time>2011-09-08T12:06:18Z</time>
      </trkpt>
      <trkpt lat="49.29483" lon="2.48376">
        <ele>103</ele>
        <time>2011-09-08T12:06:26Z</time>
      </trkpt>
      <trkpt lat="49.29478" lon="2.48364">
        <ele>103</ele>
        <time>2011-09-08T12:06:35Z</time>
      </trkpt>
      <trkpt lat="49.29473" lon="2.48352">
        <ele>103</ele>
        <time>2011-09-08T12:06:43Z</time>
      </trkpt>
      <trkpt lat="49.29468" lon="2.48339">
        <ele>103</ele>
        <time>2011-09-08T12:06:52Z</time>
      </trkpt>
      <trkpt lat="49.29462" lon="2.48326">
        <ele>103</ele>
        <time>2011-09-08T12:07:00Z</time>
      </trkpt>
      <trkpt lat="49.29457" lon="2.48315">
        <ele>103</ele>
        <time>2011-09-08T12:07:08Z</time>
      </trkpt>
      <trkpt lat="49.29451" lon="2.48303">
        <ele>103</ele>
        <time>2011-09-08T12:07:17Z</time>
      </trkpt>
      <trkpt lat="49.29447" lon="2.48289">
        <ele>103</ele>
        <time>2011-09-08T12:07:26Z</time>
      </trkpt>
      <trkpt lat="49.29442" lon="2.48276">
        <ele>103</ele>
        <time>2011-09-08T12:07:35Z</time>
      </trkpt>
      <trkpt lat="49.29437" lon="2.48263">
        <ele>103</ele>
        <time>2011-09-08T12:07:44Z</time>
      </trkpt>
      <trkpt lat="49.29432" lon="2.4825">
        <ele>103</ele>
        <time>2011-09-08T12:07:53Z</time>
      </trkpt>
      <trkpt lat="49.29426" lon="2.4824">
        <ele>103</ele>
        <time>2011-09-08T12:08:02Z</time>
      </trkpt>
      <trkpt lat="49.29419" lon="2.48231">
        <ele>103</ele>
        <time>2011-09-08T12:08:10Z</time>
      </trkpt>
      <trkpt lat="49.29415" lon="2.48218">
        <ele>103</ele>
        <time>2011-09-08T12:08:18Z</time>
      </trkpt>
      <trkpt lat="49.29408" lon="2.48206">
        <ele>109</ele>
        <time>2011-09-08T12:08:27Z</time>
      </trkpt>
      <trkpt lat="49.29405" lon="2.48193">
        <ele>109</ele>
        <time>2011-09-08T12:08:35Z</time>
      </trkpt>
      <trkpt lat="49.29404" lon="2.48179">
        <ele>109</ele>
        <time>2011-09-08T12:08:42Z</time>
      </trkpt>
      <trkpt lat="49.29408" lon="2.48165">
        <ele>101</ele>
        <time>2011-09-08T12:08:51Z</time>
      </trkpt>
      <trkpt lat="49.29416" lon="2.48155">
        <ele>101</ele>
        <time>2011-09-08T12:09:00Z</time>
      </trkpt>
      <trkpt lat="49.29424" lon="2.48148">
        <ele>101</ele>
        <time>2011-09-08T12:09:09Z</time>
      </trkpt>
      <trkpt lat="49.29433" lon="2.48142">
        <ele>101</ele>
        <time>2011-09-08T12:09:20Z</time>
      </trkpt>
      <trkpt lat="49.29441" lon="2.48134">
        <ele>101</ele>
        <time>2011-09-08T12:09:30Z</time>
      </trkpt>
      <trkpt lat="49.2945" lon="2.48125">
        <ele>107</ele>
        <time>2011-09-08T12:09:39Z</time>
      </trkpt>
      <trkpt lat="49.29458" lon="2.48117">
        <ele>107</ele>
        <time>2011-09-08T12:09:48Z</time>
      </trkpt>
      <trkpt lat="49.29465" lon="2.48108">
        <ele>107</ele>
        <time>2011-09-08T12:09:57Z</time>
      </trkpt>
      <trkpt lat="49.29474" lon="2.48099">
        <ele>107</ele>
        <time>2011-09-08T12:10:05Z</time>
      </trkpt>
      <trkpt lat="49.29481" lon="2.48091">
        <ele>107</ele>
        <time>2011-09-08T12:10:13Z</time>
      </trkpt>
      <trkpt lat="49.29489" lon="2.48085">
        <ele>107</ele>
        <time>2011-09-08T12:10:23Z</time>
      </trkpt>
      <trkpt lat="49.29495" lon="2.48074">
        <ele>107</ele>
        <time>2011-09-08T12:10:32Z</time>
      </trkpt>
      <trkpt lat="49.29503" lon="2.48064">
        <ele>107</ele>
        <time>2011-09-08T12:10:41Z</time>
      </trkpt>
      <trkpt lat="49.29511" lon="2.48056">
        <ele>107</ele>
        <time>2011-09-08T12:10:50Z</time>
      </trkpt>
      <trkpt lat="49.29519" lon="2.48049">
        <ele>107</ele>
        <time>2011-09-08T12:10:59Z</time>
      </trkpt>
      <trkpt lat="49.29526" lon="2.4804">
        <ele>107</ele>
        <time>2011-09-08T12:11:08Z</time>
      </trkpt>
      <trkpt lat="49.29535" lon="2.48032">
        <ele>107</ele>
        <time>2011-09-08T12:11:18Z</time>
      </trkpt>
      <trkpt lat="49.29544" lon="2.48027">
        <ele>107</ele>
        <time>2011-09-08T12:11:27Z</time>
      </trkpt>
      <trkpt lat="49.29552" lon="2.48019">
        <ele>107</ele>
        <time>2011-09-08T12:11:36Z</time>
      </trkpt>
      <trkpt lat="49.2956" lon="2.48011">
        <ele>107</ele>
        <time>2011-09-08T12:11:44Z</time>
      </trkpt>
      <trkpt lat="49.29569" lon="2.48004">
        <ele>107</ele>
        <time>2011-09-08T12:11:53Z</time>
      </trkpt>
      <trkpt lat="49.29577" lon="2.47997">
        <ele>107</ele>
        <time>2011-09-08T12:12:01Z</time>
      </trkpt>
      <trkpt lat="49.29586" lon="2.47991">
        <ele>107</ele>
        <time>2011-09-08T12:12:10Z</time>
      </trkpt>
      <trkpt lat="49.29595" lon="2.47984">
        <ele>107</ele>
        <time>2011-09-08T12:12:19Z</time>
      </trkpt>
      <trkpt lat="49.29603" lon="2.47977">
        <ele>107</ele>
        <time>2011-09-08T12:12:27Z</time>
      </trkpt>
      <trkpt lat="49.29611" lon="2.47971">
        <ele>107</ele>
        <time>2011-09-08T12:12:36Z</time>
      </trkpt>
      <trkpt lat="49.29619" lon="2.47964">
        <ele>107</ele>
        <time>2011-09-08T12:12:45Z</time>
      </trkpt>
      <trkpt lat="49.29628" lon="2.47957">
        <ele>107</ele>
        <time>2011-09-08T12:12:54Z</time>
      </trkpt>
      <trkpt lat="49.29638" lon="2.4795">
        <ele>107</ele>
        <time>2011-09-08T12:13:03Z</time>
      </trkpt>
      <trkpt lat="49.29646" lon="2.47942">
        <ele>107</ele>
        <time>2011-09-08T12:13:12Z</time>
      </trkpt>
      <trkpt lat="49.29655" lon="2.47936">
        <ele>107</ele>
        <time>2011-09-08T12:13:20Z</time>
      </trkpt>
      <trkpt lat="49.29663" lon="2.47931">
        <ele>107</ele>
        <time>2011-09-08T12:13:29Z</time>
      </trkpt>
      <trkpt lat="49.29673" lon="2.47926">
        <ele>107</ele>
        <time>2011-09-08T12:13:38Z</time>
      </trkpt>
      <trkpt lat="49.29683" lon="2.47926">
        <ele>107</ele>
        <time>2011-09-08T12:13:48Z</time>
      </trkpt>
      <trkpt lat="49.29693" lon="2.47925">
        <ele>107</ele>
        <time>2011-09-08T12:13:56Z</time>
      </trkpt>
      <trkpt lat="49.29703" lon="2.47926">
        <ele>107</ele>
        <time>2011-09-08T12:14:05Z</time>
      </trkpt>
      <trkpt lat="49.29713" lon="2.47926">
        <ele>107</ele>
        <time>2011-09-08T12:14:14Z</time>
      </trkpt>
      <trkpt lat="49.29723" lon="2.47925">
        <ele>107</ele>
        <time>2011-09-08T12:14:23Z</time>
      </trkpt>
      <trkpt lat="49.29732" lon="2.47925">
        <ele>107</ele>
        <time>2011-09-08T12:14:31Z</time>
      </trkpt>
      <trkpt lat="49.29742" lon="2.47925">
        <ele>107</ele>
        <time>2011-09-08T12:14:40Z</time>
      </trkpt>
      <trkpt lat="49.29751" lon="2.47924">
        <ele>107</ele>
        <time>2011-09-08T12:14:48Z</time>
      </trkpt>
      <trkpt lat="49.29761" lon="2.47925">
        <ele>107</ele>
        <time>2011-09-08T12:14:56Z</time>
      </trkpt>
      <trkpt lat="49.2977" lon="2.47926">
        <ele>107</ele>
        <time>2011-09-08T12:15:05Z</time>
      </trkpt>
      <trkpt lat="49.2978" lon="2.47926">
        <ele>107</ele>
        <time>2011-09-08T12:15:13Z</time>
      </trkpt>
      <trkpt lat="49.2979" lon="2.47924">
        <ele>107</ele>
        <time>2011-09-08T12:15:22Z</time>
      </trkpt>
      <trkpt lat="49.298" lon="2.47922">
        <ele>107</ele>
        <time>2011-09-08T12:15:31Z</time>
      </trkpt>
      <trkpt lat="49.2981" lon="2.47922">
        <ele>107</ele>
        <time>2011-09-08T12:15:40Z</time>
      </trkpt>
      <trkpt lat="49.2982" lon="2.47922">
        <ele>107</ele>
        <time>2011-09-08T12:15:50Z</time>
      </trkpt>
      <trkpt lat="49.2983" lon="2.47922">
        <ele>107</ele>
        <time>2011-09-08T12:15:58Z</time>
      </trkpt>
      <trkpt lat="49.2984" lon="2.47923">
        <ele>107</ele>
        <time>2011-09-08T12:16:07Z</time>
      </trkpt>
      <trkpt lat="49.29848" lon="2.47917">
        <ele>107</ele>
        <time>2011-09-08T12:16:15Z</time>
      </trkpt>
      <trkpt lat="49.29858" lon="2.47915">
        <ele>107</ele>
        <time>2011-09-08T12:16:27Z</time>
      </trkpt>
      <trkpt lat="49.29861" lon="2.47902">
        <ele>100</ele>
        <time>2011-09-08T12:16:33Z</time>
      </trkpt>
      <trkpt lat="49.29863" lon="2.47886">
        <ele>100</ele>
        <time>2011-09-08T12:16:42Z</time>
      </trkpt>
      <trkpt lat="49.29867" lon="2.47873">
        <ele>106</ele>
        <time>2011-09-08T12:16:52Z</time>
      </trkpt>
      <trkpt lat="49.29871" lon="2.47861">
        <ele>106</ele>
        <time>2011-09-08T12:17:00Z</time>
      </trkpt>
      <trkpt lat="49.29875" lon="2.47846">
        <ele>100</ele>
        <time>2011-09-08T12:17:11Z</time>
      </trkpt>
      <trkpt lat="49.29877" lon="2.47829">
        <ele>105</ele>
        <time>2011-09-08T12:17:20Z</time>
      </trkpt>
      <trkpt lat="49.29881" lon="2.47816">
        <ele>105</ele>
        <time>2011-09-08T12:17:28Z</time>
      </trkpt>
      <trkpt lat="49.29882" lon="2.478">
        <ele>105</ele>
        <time>2011-09-08T12:17:40Z</time>
      </trkpt>
      <trkpt lat="49.29886" lon="2.47787">
        <ele>111</ele>
        <time>2011-09-08T12:17:45Z</time>
      </trkpt>
      <trkpt lat="49.2989" lon="2.47774">
        <ele>111</ele>
        <time>2011-09-08T12:17:54Z</time>
      </trkpt>
      <trkpt lat="49.2989" lon="2.47759">
        <ele>111</ele>
        <time>2011-09-08T12:18:01Z</time>
      </trkpt>
      <trkpt lat="49.29897" lon="2.47746">
        <ele>111</ele>
        <time>2011-09-08T12:18:15Z</time>
      </trkpt>
      <trkpt lat="49.29898" lon="2.4773">
        <ele>103</ele>
        <time>2011-09-08T12:18:23Z</time>
      </trkpt>
      <trkpt lat="49.29897" lon="2.47716">
        <ele>103</ele>
        <time>2011-09-08T12:18:31Z</time>
      </trkpt>
      <trkpt lat="49.29902" lon="2.47702">
        <ele>97</ele>
        <time>2011-09-08T12:18:39Z</time>
      </trkpt>
      <trkpt lat="49.29901" lon="2.47684">
        <ele>88</ele>
        <time>2011-09-08T12:18:51Z</time>
      </trkpt>
      <trkpt lat="49.29896" lon="2.47672">
        <ele>88</ele>
        <time>2011-09-08T12:18:56Z</time>
      </trkpt>
      <trkpt lat="49.29891" lon="2.47659">
        <ele>88</ele>
        <time>2011-09-08T12:19:05Z</time>
      </trkpt>
      <trkpt lat="49.29888" lon="2.47645">
        <ele>88</ele>
        <time>2011-09-08T12:19:14Z</time>
      </trkpt>
      <trkpt lat="49.29882" lon="2.47633">
        <ele>88</ele>
        <time>2011-09-08T12:19:21Z</time>
      </trkpt>
      <trkpt lat="49.29873" lon="2.47627">
        <ele>99</ele>
        <time>2011-09-08T12:19:29Z</time>
      </trkpt>
      <trkpt lat="49.29865" lon="2.47616">
        <ele>99</ele>
        <time>2011-09-08T12:19:41Z</time>
      </trkpt>
      <trkpt lat="49.29861" lon="2.47604">
        <ele>99</ele>
        <time>2011-09-08T12:19:52Z</time>
      </trkpt>
      <trkpt lat="49.29852" lon="2.47589">
        <ele>99</ele>
        <time>2011-09-08T12:20:02Z</time>
      </trkpt>
      <trkpt lat="49.29848" lon="2.47576">
        <ele>86</ele>
        <time>2011-09-08T12:20:10Z</time>
      </trkpt>
      <trkpt lat="49.29842" lon="2.47565">
        <ele>86</ele>
        <time>2011-09-08T12:20:20Z</time>
      </trkpt>
      <trkpt lat="49.29836" lon="2.47554">
        <ele>93</ele>
        <time>2011-09-08T12:20:30Z</time>
      </trkpt>
      <trkpt lat="49.2983" lon="2.47543">
        <ele>93</ele>
        <time>2011-09-08T12:20:40Z</time>
      </trkpt>
      <trkpt lat="49.29824" lon="2.47532">
        <ele>93</ele>
        <time>2011-09-08T12:20:49Z</time>
      </trkpt>
      <trkpt lat="49.29815" lon="2.47525">
        <ele>101</ele>
        <time>2011-09-08T12:20:56Z</time>
      </trkpt>
      <trkpt lat="49.29816" lon="2.4751">
        <ele>101</ele>
        <time>2011-09-08T12:21:08Z</time>
      </trkpt>
      <trkpt lat="49.29811" lon="2.47498">
        <ele>101</ele>
        <time>2011-09-08T12:21:17Z</time>
      </trkpt>
      <trkpt lat="49.29805" lon="2.47484">
        <ele>90</ele>
        <time>2011-09-08T12:21:22Z</time>
      </trkpt>
      <trkpt lat="49.29798" lon="2.47474">
        <ele>90</ele>
        <time>2011-09-08T12:21:29Z</time>
      </trkpt>
      <trkpt lat="49.29794" lon="2.47462">
        <ele>90</ele>
        <time>2011-09-08T12:21:40Z</time>
      </trkpt>
      <trkpt lat="49.29789" lon="2.47447">
        <ele>90</ele>
        <time>2011-09-08T12:21:51Z</time>
      </trkpt>
      <trkpt lat="49.29786" lon="2.47433">
        <ele>90</ele>
        <time>2011-09-08T12:21:57Z</time>
      </trkpt>
      <trkpt lat="49.29778" lon="2.47422">
        <ele>85</ele>
        <time>2011-09-08T12:22:02Z</time>
      </trkpt>
      <trkpt lat="49.29772" lon="2.47409">
        <ele>79</ele>
        <time>2011-09-08T12:22:13Z</time>
      </trkpt>
      <trkpt lat="49.29761" lon="2.47407">
        <ele>86</ele>
        <time>2011-09-08T12:22:22Z</time>
      </trkpt>
      <trkpt lat="49.29757" lon="2.47392">
        <ele>92</ele>
        <time>2011-09-08T12:22:38Z</time>
      </trkpt>
      <trkpt lat="49.29753" lon="2.47378">
        <ele>92</ele>
        <time>2011-09-08T12:22:41Z</time>
      </trkpt>
      <trkpt lat="49.29743" lon="2.47372">
        <ele>99</ele>
        <time>2011-09-08T12:22:55Z</time>
      </trkpt>
      <trkpt lat="49.29745" lon="2.47357">
        <ele>99</ele>
        <time>2011-09-08T12:22:58Z</time>
      </trkpt>
      <trkpt lat="49.2974" lon="2.47341">
        <ele>99</ele>
        <time>2011-09-08T12:23:09Z</time>
      </trkpt>
      <trkpt lat="49.29734" lon="2.47331">
        <ele>99</ele>
        <time>2011-09-08T12:23:17Z</time>
      </trkpt>
      <trkpt lat="49.29742" lon="2.47318">
        <ele>99</ele>
        <time>2011-09-08T12:23:42Z</time>
      </trkpt>
      <trkpt lat="49.29747" lon="2.47295">
        <ele>105</ele>
        <time>2011-09-08T12:23:59Z</time>
      </trkpt>
      <trkpt lat="49.29757" lon="2.47286">
        <ele>105</ele>
        <time>2011-09-08T12:24:01Z</time>
      </trkpt>
      <trkpt lat="49.29763" lon="2.47274">
        <ele>92</ele>
        <time>2011-09-08T12:24:24Z</time>
      </trkpt>
      <trkpt lat="49.2977" lon="2.47263">
        <ele>92</ele>
        <time>2011-09-08T12:24:34Z</time>
      </trkpt>
      <trkpt lat="49.29773" lon="2.47248">
        <ele>86</ele>
        <time>2011-09-08T12:24:46Z</time>
      </trkpt>
      <trkpt lat="49.29773" lon="2.47233">
        <ele>86</ele>
        <time>2011-09-08T12:24:54Z</time>
      </trkpt>
      <trkpt lat="49.29776" lon="2.47219">
        <ele>86</ele>
        <time>2011-09-08T12:25:02Z</time>
      </trkpt>
      <trkpt lat="49.29777" lon="2.47204">
        <ele>86</ele>
        <time>2011-09-08T12:25:10Z</time>
      </trkpt>
      <trkpt lat="49.29777" lon="2.47189">
        <ele>97</ele>
        <time>2011-09-08T12:25:22Z</time>
      </trkpt>
      <trkpt lat="49.29771" lon="2.47178">
        <ele>97</ele>
        <time>2011-09-08T12:25:32Z</time>
      </trkpt>
      <trkpt lat="49.29771" lon="2.47163">
        <ele>97</ele>
        <time>2011-09-08T12:25:43Z</time>
      </trkpt>
      <trkpt lat="49.29778" lon="2.4715">
        <ele>97</ele>
        <time>2011-09-08T12:25:56Z</time>
      </trkpt>
      <trkpt lat="49.29774" lon="2.47136">
        <ele>97</ele>
        <time>2011-09-08T12:26:09Z</time>
      </trkpt>
      <trkpt lat="49.29777" lon="2.47123">
        <ele>80</ele>
        <time>2011-09-08T12:26:22Z</time>
      </trkpt>
      <trkpt lat="49.29774" lon="2.47109">
        <ele>75</ele>
        <time>2011-09-08T12:26:30Z</time>
      </trkpt>
      <trkpt lat="49.29773" lon="2.47092">
        <ele>66</ele>
        <time>2011-09-08T12:26:41Z</time>
      </trkpt>
      <trkpt lat="49.29767" lon="2.47077">
        <ele>66</ele>
        <time>2011-09-08T12:26:48Z</time>
      </trkpt>
      <trkpt lat="49.29772" lon="2.47065">
        <ele>57</ele>
        <time>2011-09-08T12:27:01Z</time>
      </trkpt>
      <trkpt lat="49.29781" lon="2.47055">
        <ele>57</ele>
        <time>2011-09-08T12:27:11Z</time>
      </trkpt>
      <trkpt lat="49.2979" lon="2.47048">
        <ele>68</ele>
        <time>2011-09-08T12:27:18Z</time>
      </trkpt>
      <trkpt lat="49.29798" lon="2.47041">
        <ele>68</ele>
        <time>2011-09-08T12:27:28Z</time>
      </trkpt>
      <trkpt lat="49.29807" lon="2.47034">
        <ele>73</ele>
        <time>2011-09-08T12:27:33Z</time>
      </trkpt>
      <trkpt lat="49.29813" lon="2.47023">
        <ele>73</ele>
        <time>2011-09-08T12:27:42Z</time>
      </trkpt>
      <trkpt lat="49.29816" lon="2.47009">
        <ele>73</ele>
        <time>2011-09-08T12:27:50Z</time>
      </trkpt>
      <trkpt lat="49.2982" lon="2.46996">
        <ele>73</ele>
        <time>2011-09-08T12:27:59Z</time>
      </trkpt>
      <trkpt lat="49.29827" lon="2.46985">
        <ele>73</ele>
        <time>2011-09-08T12:28:09Z</time>
      </trkpt>
      <trkpt lat="49.29829" lon="2.46968">
        <ele>79</ele>
        <time>2011-09-08T12:28:17Z</time>
      </trkpt>
      <trkpt lat="49.29827" lon="2.46952">
        <ele>79</ele>
        <time>2011-09-08T12:28:34Z</time>
      </trkpt>
      <trkpt lat="49.29828" lon="2.46938">
        <ele>64</ele>
        <time>2011-09-08T12:28:42Z</time>
      </trkpt>
      <trkpt lat="49.29831" lon="2.46924">
        <ele>64</ele>
        <time>2011-09-08T12:28:54Z</time>
      </trkpt>
      <trkpt lat="49.29831" lon="2.46909">
        <ele>70</ele>
        <time>2011-09-08T12:29:02Z</time>
      </trkpt>
      <trkpt lat="49.29827" lon="2.46896">
        <ele>70</ele>
        <time>2011-09-08T12:29:12Z</time>
      </trkpt>
      <trkpt lat="49.29822" lon="2.4688">
        <ele>59</ele>
        <time>2011-09-08T12:29:20Z</time>
      </trkpt>
      <trkpt lat="49.2983" lon="2.46889">
        <ele>52</ele>
        <time>2011-09-08T12:29:48Z</time>
      </trkpt>
      <trkpt lat="49.29836" lon="2.46899">
        <ele>52</ele>
        <time>2011-09-08T12:29:58Z</time>
      </trkpt>
      <trkpt lat="49.29843" lon="2.46908">
        <ele>52</ele>
        <time>2011-09-08T12:30:06Z</time>
      </trkpt>
      <trkpt lat="49.29851" lon="2.46915">
        <ele>63</ele>
        <time>2011-09-08T12:30:12Z</time>
      </trkpt>
      <trkpt lat="49.29857" lon="2.46928">
        <ele>57</ele>
        <time>2011-09-08T12:30:25Z</time>
      </trkpt>
      <trkpt lat="49.29865" lon="2.46939">
        <ele>49</ele>
        <time>2011-09-08T12:30:41Z</time>
      </trkpt>
      <trkpt lat="49.29872" lon="2.46949">
        <ele>55</ele>
        <time>2011-09-08T12:30:47Z</time>
      </trkpt>
      <trkpt lat="49.29879" lon="2.46958">
        <ele>62</ele>
        <time>2011-09-08T12:30:54Z</time>
      </trkpt>
      <trkpt lat="49.29885" lon="2.46968">
        <ele>71</ele>
        <time>2011-09-08T12:31:02Z</time>
      </trkpt>
      <trkpt lat="49.29884" lon="2.46984">
        <ele>71</ele>
        <time>2011-09-08T12:31:09Z</time>
      </trkpt>
      <trkpt lat="49.29891" lon="2.46995">
        <ele>71</ele>
        <time>2011-09-08T12:31:19Z</time>
      </trkpt>
      <trkpt lat="49.2989" lon="2.47009">
        <ele>58</ele>
        <time>2011-09-08T12:31:30Z</time>
      </trkpt>
      <trkpt lat="49.29894" lon="2.47022">
        <ele>58</ele>
        <time>2011-09-08T12:31:41Z</time>
      </trkpt>
      <trkpt lat="49.29896" lon="2.47037">
        <ele>58</ele>
        <time>2011-09-08T12:31:51Z</time>
      </trkpt>
      <trkpt lat="49.29897" lon="2.47051">
        <ele>58</ele>
        <time>2011-09-08T12:31:59Z</time>
      </trkpt>
      <trkpt lat="49.29902" lon="2.47064">
        <ele>58</ele>
        <time>2011-09-08T12:32:12Z</time>
      </trkpt>
      <trkpt lat="49.29906" lon="2.47077">
        <ele>53</ele>
        <time>2011-09-08T12:32:21Z</time>
      </trkpt>
      <trkpt lat="49.29912" lon="2.47088">
        <ele>53</ele>
        <time>2011-09-08T12:32:32Z</time>
      </trkpt>
      <trkpt lat="49.29922" lon="2.47088">
        <ele>53</ele>
        <time>2011-09-08T12:32:41Z</time>
      </trkpt>
      <trkpt lat="49.29931" lon="2.47093">
        <ele>60</ele>
        <time>2011-09-08T12:32:51Z</time>
      </trkpt>
      <trkpt lat="49.2994" lon="2.47098">
        <ele>60</ele>
        <time>2011-09-08T12:33:00Z</time>
      </trkpt>
      <trkpt lat="49.2995" lon="2.471">
        <ele>60</ele>
        <time>2011-09-08T12:33:07Z</time>
      </trkpt>
      <trkpt lat="49.29959" lon="2.47097">
        <ele>60</ele>
        <time>2011-09-08T12:33:18Z</time>
      </trkpt>
      <trkpt lat="49.29969" lon="2.47096">
        <ele>60</ele>
        <time>2011-09-08T12:33:23Z</time>
      </trkpt>
      <trkpt lat="49.29975" lon="2.47107">
        <ele>60</ele>
        <time>2011-09-08T12:33:30Z</time>
      </trkpt>
      <trkpt lat="49.29985" lon="2.4711">
        <ele>52</ele>
        <time>2011-09-08T12:33:48Z</time>
      </trkpt>
      <trkpt lat="49.29992" lon="2.47119">
        <ele>52</ele>
        <time>2011-09-08T12:34:03Z</time>
      </trkpt>
      <trkpt lat="49.29999" lon="2.47128">
        <ele>52</ele>
        <time>2011-09-08T12:34:11Z</time>
      </trkpt>
      <trkpt lat="49.30007" lon="2.47138">
        <ele>52</ele>
        <time>2011-09-08T12:34:20Z</time>
      </trkpt>
      <trkpt lat="49.30015" lon="2.47149">
        <ele>58</ele>
        <time>2011-09-08T12:34:32Z</time>
      </trkpt>
      <trkpt lat="49.30022" lon="2.47158">
        <ele>58</ele>
        <time>2011-09-08T12:34:38Z</time>
      </trkpt>
      <trkpt lat="49.30031" lon="2.47167">
        <ele>58</ele>
        <time>2011-09-08T12:34:51Z</time>
      </trkpt>
      <trkpt lat="49.30036" lon="2.47181">
        <ele>52</ele>
        <time>2011-09-08T12:35:07Z</time>
      </trkpt>
      <trkpt lat="49.30045" lon="2.47192">
        <ele>52</ele>
        <time>2011-09-08T12:35:14Z</time>
      </trkpt>
      <trkpt lat="49.30051" lon="2.47203">
        <ele>52</ele>
        <time>2011-09-08T12:35:21Z</time>
      </trkpt>
      <trkpt lat="49.30056" lon="2.47217">
        <ele>52</ele>
        <time>2011-09-08T12:35:32Z</time>
      </trkpt>
      <trkpt lat="49.30062" lon="2.47227">
        <ele>52</ele>
        <time>2011-09-08T12:35:38Z</time>
      </trkpt>
      <trkpt lat="49.30072" lon="2.47228">
        <ele>52</ele>
        <time>2011-09-08T12:35:47Z</time>
      </trkpt>
      <trkpt lat="49.3008" lon="2.47233">
        <ele>52</ele>
        <time>2011-09-08T12:36:06Z</time>
      </trkpt>
      <trkpt lat="49.3009" lon="2.47237">
        <ele>52</ele>
        <time>2011-09-08T12:36:15Z</time>
      </trkpt>
      <trkpt lat="49.30098" lon="2.47247">
        <ele>52</ele>
        <time>2011-09-08T12:36:27Z</time>
      </trkpt>
      <trkpt lat="49.30106" lon="2.47254">
        <ele>58</ele>
        <time>2011-09-08T12:36:39Z</time>
      </trkpt>
      <trkpt lat="49.30111" lon="2.47269">
        <ele>58</ele>
        <time>2011-09-08T12:36:55Z</time>
      </trkpt>
      <trkpt lat="49.30115" lon="2.47283">
        <ele>47</ele>
        <time>2011-09-08T12:37:07Z</time>
      </trkpt>
      <trkpt lat="49.30122" lon="2.47295">
        <ele>47</ele>
        <time>2011-09-08T12:37:16Z</time>
      </trkpt>
      <trkpt lat="49.3013" lon="2.47302">
        <ele>53</ele>
        <time>2011-09-08T12:37:30Z</time>
      </trkpt>
      <trkpt lat="49.3013" lon="2.47316">
        <ele>64</ele>
        <time>2011-09-08T12:37:39Z</time>
      </trkpt>
      <trkpt lat="49.30131" lon="2.47331">
        <ele>71</ele>
        <time>2011-09-08T12:37:48Z</time>
      </trkpt>
      <trkpt lat="49.30135" lon="2.47344">
        <ele>71</ele>
        <time>2011-09-08T12:37:55Z</time>
      </trkpt>
      <trkpt lat="49.30136" lon="2.47358">
        <ele>79</ele>
        <time>2011-09-08T12:38:08Z</time>
      </trkpt>
      <trkpt lat="49.3014" lon="2.47374">
        <ele>86</ele>
        <time>2011-09-08T12:38:14Z</time>
      </trkpt>
      <trkpt lat="49.30147" lon="2.47382">
        <ele>96</ele>
        <time>2011-09-08T12:38:27Z</time>
      </trkpt>
      <trkpt lat="49.30152" lon="2.47396">
        <ele>96</ele>
        <time>2011-09-08T12:38:42Z</time>
      </trkpt>
      <trkpt lat="49.30156" lon="2.4741">
        <ele>81</ele>
        <time>2011-09-08T12:38:54Z</time>
      </trkpt>
      <trkpt lat="49.30157" lon="2.47426">
        <ele>81</ele>
        <time>2011-09-08T12:39:01Z</time>
      </trkpt>
      <trkpt lat="49.30168" lon="2.47429">
        <ele>69</ele>
        <time>2011-09-08T12:39:11Z</time>
      </trkpt>
      <trkpt lat="49.3017" lon="2.47444">
        <ele>75</ele>
        <time>2011-09-08T12:39:18Z</time>
      </trkpt>
      <trkpt lat="49.30172" lon="2.47458">
        <ele>75</ele>
        <time>2011-09-08T12:39:24Z</time>
      </trkpt>
      <trkpt lat="49.30172" lon="2.47472">
        <ele>75</ele>
        <time>2011-09-08T12:39:33Z</time>
      </trkpt>
      <trkpt lat="49.30177" lon="2.47488">
        <ele>80</ele>
        <time>2011-09-08T12:39:40Z</time>
      </trkpt>
      <trkpt lat="49.30177" lon="2.47502">
        <ele>87</ele>
        <time>2011-09-08T12:39:51Z</time>
      </trkpt>
      <trkpt lat="49.30177" lon="2.4752">
        <ele>95</ele>
        <time>2011-09-08T12:39:59Z</time>
      </trkpt>
      <trkpt lat="49.30183" lon="2.47532">
        <ele>88</ele>
        <time>2011-09-08T12:40:15Z</time>
      </trkpt>
      <trkpt lat="49.30184" lon="2.47547">
        <ele>88</ele>
        <time>2011-09-08T12:40:21Z</time>
      </trkpt>
      <trkpt lat="49.30189" lon="2.47561">
        <ele>88</ele>
        <time>2011-09-08T12:40:32Z</time>
      </trkpt>
      <trkpt lat="49.30192" lon="2.47575">
        <ele>88</ele>
        <time>2011-09-08T12:40:42Z</time>
      </trkpt>
      <trkpt lat="49.30199" lon="2.47584">
        <ele>83</ele>
        <time>2011-09-08T12:40:49Z</time>
      </trkpt>
      <trkpt lat="49.30206" lon="2.47593">
        <ele>75</ele>
        <time>2011-09-08T12:40:59Z</time>
      </trkpt>
      <trkpt lat="49.30213" lon="2.47603">
        <ele>75</ele>
        <time>2011-09-08T12:41:05Z</time>
      </trkpt>
      <trkpt lat="49.3022" lon="2.47614">
        <ele>75</ele>
        <time>2011-09-08T12:41:11Z</time>
      </trkpt>
      <trkpt lat="49.30215" lon="2.47627">
        <ele>81</ele>
        <time>2011-09-08T12:41:25Z</time>
      </trkpt>
      <trkpt lat="49.30218" lon="2.47641">
        <ele>81</ele>
        <time>2011-09-08T12:41:32Z</time>
      </trkpt>
      <trkpt lat="49.30222" lon="2.47657">
        <ele>76</ele>
        <time>2011-09-08T12:41:46Z</time>
      </trkpt>
      <trkpt lat="49.30231" lon="2.47666">
        <ele>76</ele>
        <time>2011-09-08T12:41:55Z</time>
      </trkpt>
      <trkpt lat="49.30236" lon="2.47679">
        <ele>83</ele>
        <time>2011-09-08T12:41:59Z</time>
      </trkpt>
      <trkpt lat="49.3024" lon="2.47692">
        <ele>83</ele>
        <time>2011-09-08T12:42:10Z</time>
      </trkpt>
      <trkpt lat="49.30242" lon="2.47708">
        <ele>83</ele>
        <time>2011-09-08T12:42:17Z</time>
      </trkpt>
      <trkpt lat="49.30241" lon="2.47723">
        <ele>94</ele>
        <time>2011-09-08T12:42:25Z</time>
      </trkpt>
      <trkpt lat="49.30247" lon="2.47734">
        <ele>101</ele>
        <time>2011-09-08T12:42:33Z</time>
      </trkpt>
      <trkpt lat="49.30248" lon="2.47748">
        <ele>101</ele>
        <time>2011-09-08T12:42:40Z</time>
      </trkpt>
      <trkpt lat="49.30256" lon="2.47758">
        <ele>89</ele>
        <time>2011-09-08T12:42:55Z</time>
      </trkpt>
      <trkpt lat="49.30263" lon="2.47769">
        <ele>80</ele>
        <time>2011-09-08T12:43:08Z</time>
      </trkpt>
      <trkpt lat="49.30265" lon="2.47782">
        <ele>80</ele>
        <time>2011-09-08T12:43:17Z</time>
      </trkpt>
      <trkpt lat="49.30263" lon="2.47798">
        <ele>91</ele>
        <time>2011-09-08T12:43:24Z</time>
      </trkpt>
      <trkpt lat="49.30272" lon="2.47806">
        <ele>102</ele>
        <time>2011-09-08T12:43:33Z</time>
      </trkpt>
      <trkpt lat="49.30271" lon="2.47821">
        <ele>102</ele>
        <time>2011-09-08T12:43:38Z</time>
      </trkpt>
      <trkpt lat="49.30271" lon="2.47838">
        <ele>119</ele>
        <time>2011-09-08T12:43:52Z</time>
      </trkpt>
      <trkpt lat="49.30272" lon="2.47853">
        <ele>129</ele>
        <time>2011-09-08T12:43:57Z</time>
      </trkpt>
      <trkpt lat="49.30273" lon="2.47869">
        <ele>129</ele>
        <time>2011-09-08T12:44:06Z</time>
      </trkpt>
      <trkpt lat="49.30275" lon="2.47884">
        <ele>129</ele>
        <time>2011-09-08T12:44:21Z</time>
      </trkpt>
      <trkpt lat="49.30277" lon="2.47897">
        <ele>129</ele>
        <time>2011-09-08T12:44:27Z</time>
      </trkpt>
      <trkpt lat="49.30286" lon="2.47905">
        <ele>129</ele>
        <time>2011-09-08T12:44:40Z</time>
      </trkpt>
      <trkpt lat="49.30294" lon="2.47914">
        <ele>121</ele>
        <time>2011-09-08T12:44:49Z</time>
      </trkpt>
      <trkpt lat="49.30301" lon="2.47929">
        <ele>121</ele>
        <time>2011-09-08T12:44:57Z</time>
      </trkpt>
      <trkpt lat="49.30308" lon="2.47943">
        <ele>121</ele>
        <time>2011-09-08T12:45:09Z</time>
      </trkpt>
      <trkpt lat="49.30315" lon="2.47952">
        <ele>109</ele>
        <time>2011-09-08T12:45:18Z</time>
      </trkpt>
      <trkpt lat="49.30319" lon="2.47966">
        <ele>109</ele>
        <time>2011-09-08T12:45:29Z</time>
      </trkpt>
      <trkpt lat="49.30323" lon="2.4798">
        <ele>109</ele>
        <time>2011-09-08T12:45:37Z</time>
      </trkpt>
      <trkpt lat="49.30328" lon="2.47991">
        <ele>109</ele>
        <time>2011-09-08T12:45:43Z</time>
      </trkpt>
      <trkpt lat="49.30335" lon="2.48001">
        <ele>99</ele>
        <time>2011-09-08T12:45:53Z</time>
      </trkpt>
      <trkpt lat="49.30345" lon="2.48007">
        <ele>88</ele>
        <time>2011-09-08T12:46:03Z</time>
      </trkpt>
      <trkpt lat="49.30348" lon="2.48021">
        <ele>88</ele>
        <time>2011-09-08T12:46:08Z</time>
      </trkpt>
      <trkpt lat="49.30358" lon="2.48021">
        <ele>83</ele>
        <time>2011-09-08T12:46:13Z</time>
      </trkpt>
      <trkpt lat="49.30368" lon="2.48028">
        <ele>83</ele>
        <time>2011-09-08T12:46:20Z</time>
      </trkpt>
      <trkpt lat="49.30372" lon="2.48041">
        <ele>74</ele>
        <time>2011-09-08T12:46:27Z</time>
      </trkpt>
      <trkpt lat="49.30377" lon="2.48053">
        <ele>66</ele>
        <time>2011-09-08T12:46:35Z</time>
      </trkpt>
      <trkpt lat="49.30387" lon="2.48057">
        <ele>66</ele>
        <time>2011-09-08T12:46:46Z</time>
      </trkpt>
      <trkpt lat="49.30391" lon="2.48071">
        <ele>66</ele>
        <time>2011-09-08T12:47:01Z</time>
      </trkpt>
      <trkpt lat="49.30401" lon="2.48068">
        <ele>74</ele>
        <time>2011-09-08T12:47:19Z</time>
      </trkpt>
      <trkpt lat="49.30408" lon="2.48078">
        <ele>80</ele>
        <time>2011-09-08T12:47:30Z</time>
      </trkpt>
      <trkpt lat="49.30416" lon="2.48088">
        <ele>65</ele>
        <time>2011-09-08T12:47:44Z</time>
      </trkpt>
      <trkpt lat="49.30425" lon="2.48094">
        <ele>65</ele>
        <time>2011-09-08T12:47:53Z</time>
      </trkpt>
      <trkpt lat="49.30429" lon="2.48108">
        <ele>71</ele>
        <time>2011-09-08T12:48:01Z</time>
      </trkpt>
      <trkpt lat="49.30434" lon="2.4812">
        <ele>82</ele>
        <time>2011-09-08T12:48:10Z</time>
      </trkpt>
      <trkpt lat="49.30441" lon="2.48129">
        <ele>93</ele>
        <time>2011-09-08T12:48:26Z</time>
      </trkpt>
      <trkpt lat="49.30447" lon="2.48142">
        <ele>93</ele>
        <time>2011-09-08T12:48:35Z</time>
      </trkpt>
      <trkpt lat="49.30456" lon="2.48151">
        <ele>93</ele>
        <time>2011-09-08T12:48:46Z</time>
      </trkpt>
      <trkpt lat="49.30461" lon="2.48163">
        <ele>93</ele>
        <time>2011-09-08T12:48:51Z</time>
      </trkpt>
      <trkpt lat="49.30469" lon="2.48171">
        <ele>93</ele>
        <time>2011-09-08T12:49:01Z</time>
      </trkpt>
      <trkpt lat="49.30476" lon="2.48181">
        <ele>87</ele>
        <time>2011-09-08T12:49:12Z</time>
      </trkpt>
      <trkpt lat="49.3048" lon="2.48196">
        <ele>87</ele>
        <time>2011-09-08T12:49:25Z</time>
      </trkpt>
      <trkpt lat="49.30486" lon="2.48209">
        <ele>87</ele>
        <time>2011-09-08T12:49:34Z</time>
      </trkpt>
      <trkpt lat="49.30489" lon="2.48223">
        <ele>87</ele>
        <time>2011-09-08T12:49:43Z</time>
      </trkpt>
      <trkpt lat="49.30491" lon="2.48237">
        <ele>87</ele>
        <time>2011-09-08T12:49:53Z</time>
      </trkpt>
      <trkpt lat="49.30496" lon="2.48249">
        <ele>82</ele>
        <time>2011-09-08T12:50:02Z</time>
      </trkpt>
      <trkpt lat="49.30501" lon="2.48262">
        <ele>76</ele>
        <time>2011-09-08T12:50:11Z</time>
      </trkpt>
      <trkpt lat="49.30505" lon="2.48276">
        <ele>76</ele>
        <time>2011-09-08T12:50:22Z</time>
      </trkpt>
      <trkpt lat="49.30509" lon="2.48289">
        <ele>76</ele>
        <time>2011-09-08T12:50:26Z</time>
      </trkpt>
      <trkpt lat="49.30513" lon="2.48303">
        <ele>86</ele>
        <time>2011-09-08T12:50:35Z</time>
      </trkpt>
      <trkpt lat="49.30516" lon="2.48318">
        <ele>79</ele>
        <time>2011-09-08T12:50:47Z</time>
      </trkpt>
      <trkpt lat="49.3052" lon="2.4833">
        <ele>79</ele>
        <time>2011-09-08T12:50:57Z</time>
      </trkpt>
      <trkpt lat="49.30525" lon="2.48342">
        <ele>89</ele>
        <time>2011-09-08T12:51:08Z</time>
      </trkpt>
      <trkpt lat="49.30523" lon="2.48357">
        <ele>110</ele>
        <time>2011-09-08T12:51:15Z</time>
      </trkpt>
      <trkpt lat="49.30524" lon="2.48372">
        <ele>120</ele>
        <time>2011-09-08T12:51:23Z</time>
      </trkpt>
      <trkpt lat="49.30529" lon="2.48384">
        <ele>138</ele>
        <time>2011-09-08T12:51:37Z</time>
      </trkpt>
      <trkpt lat="49.3053" lon="2.48399">
        <ele>138</ele>
        <time>2011-09-08T12:51:42Z</time>
      </trkpt>
      <trkpt lat="49.30533" lon="2.48414">
        <ele>147</ele>
        <time>2011-09-08T12:51:51Z</time>
      </trkpt>
      <trkpt lat="49.30541" lon="2.48422">
        <ele>147</ele>
        <time>2011-09-08T12:52:03Z</time>
      </trkpt>
      <trkpt lat="49.30546" lon="2.48435">
        <ele>147</ele>
        <time>2011-09-08T12:52:12Z</time>
      </trkpt>
      <trkpt lat="49.30548" lon="2.4845">
        <ele>147</ele>
        <time>2011-09-08T12:52:18Z</time>
      </trkpt>
      <trkpt lat="49.3055" lon="2.48465">
        <ele>147</ele>
        <time>2011-09-08T12:52:24Z</time>
      </trkpt>
      <trkpt lat="49.3056" lon="2.48463">
        <ele>131</ele>
        <time>2011-09-08T12:52:29Z</time>
      </trkpt>
      <trkpt lat="49.3057" lon="2.4846">
        <ele>131</ele>
        <time>2011-09-08T12:52:35Z</time>
      </trkpt>
      <trkpt lat="49.30577" lon="2.48472">
        <ele>124</ele>
        <time>2011-09-08T12:52:47Z</time>
      </trkpt>
      <trkpt lat="49.30584" lon="2.48461">
        <ele>114</ele>
        <time>2011-09-08T12:52:54Z</time>
      </trkpt>
      <trkpt lat="49.30591" lon="2.48473">
        <ele>72</ele>
        <time>2011-09-08T12:53:17Z</time>
      </trkpt>
      <trkpt lat="49.30592" lon="2.48488">
        <ele>77</ele>
        <time>2011-09-08T12:53:22Z</time>
      </trkpt>
      <trkpt lat="49.30601" lon="2.48496">
        <ele>77</ele>
        <time>2011-09-08T12:53:29Z</time>
      </trkpt>
      <trkpt lat="49.30604" lon="2.4851">
        <ele>103</ele>
        <time>2011-09-08T12:53:46Z</time>
      </trkpt>
      <trkpt lat="49.30607" lon="2.48523">
        <ele>113</ele>
        <time>2011-09-08T12:53:52Z</time>
      </trkpt>
      <trkpt lat="49.30611" lon="2.48536">
        <ele>113</ele>
        <time>2011-09-08T12:54:01Z</time>
      </trkpt>
      <trkpt lat="49.3062" lon="2.48541">
        <ele>113</ele>
        <time>2011-09-08T12:54:09Z</time>
      </trkpt>
      <trkpt lat="49.30629" lon="2.48547">
        <ele>113</ele>
        <time>2011-09-08T12:54:25Z</time>
      </trkpt>
      <trkpt lat="49.30634" lon="2.48558">
        <ele>113</ele>
        <time>2011-09-08T12:54:32Z</time>
      </trkpt>
      <trkpt lat="49.30637" lon="2.48572">
        <ele>113</ele>
        <time>2011-09-08T12:54:45Z</time>
      </trkpt>
      <trkpt lat="49.30644" lon="2.48587">
        <ele>102</ele>
        <time>2011-09-08T12:54:53Z</time>
      </trkpt>
      <trkpt lat="49.30653" lon="2.48591">
        <ele>94</ele>
        <time>2011-09-08T12:54:58Z</time>
      </trkpt>
      <trkpt lat="49.30663" lon="2.48593">
        <ele>94</ele>
        <time>2011-09-08T12:55:07Z</time>
      </trkpt>
      <trkpt lat="49.30671" lon="2.48598">
        <ele>94</ele>
        <time>2011-09-08T12:55:15Z</time>
      </trkpt>
      <trkpt lat="49.3068" lon="2.48607">
        <ele>88</ele>
        <time>2011-09-08T12:55:25Z</time>
      </trkpt>
      <trkpt lat="49.30686" lon="2.4862">
        <ele>88</ele>
        <time>2011-09-08T12:55:32Z</time>
      </trkpt>
      <trkpt lat="49.30695" lon="2.4862">
        <ele>88</ele>
        <time>2011-09-08T12:55:41Z</time>
      </trkpt>
      <trkpt lat="49.30697" lon="2.48636">
        <ele>88</ele>
        <time>2011-09-08T12:55:48Z</time>
      </trkpt>
      <trkpt lat="49.30706" lon="2.48639">
        <ele>88</ele>
        <time>2011-09-08T12:55:59Z</time>
      </trkpt>
      <trkpt lat="49.30715" lon="2.48645">
        <ele>88</ele>
        <time>2011-09-08T12:56:07Z</time>
      </trkpt>
      <trkpt lat="49.30723" lon="2.48655">
        <ele>88</ele>
        <time>2011-09-08T12:56:16Z</time>
      </trkpt>
      <trkpt lat="49.30731" lon="2.48662">
        <ele>88</ele>
        <time>2011-09-08T12:56:31Z</time>
      </trkpt>
      <trkpt lat="49.3073" lon="2.48677">
        <ele>88</ele>
        <time>2011-09-08T12:56:41Z</time>
      </trkpt>
      <trkpt lat="49.30721" lon="2.48683">
        <ele>88</ele>
        <time>2011-09-08T12:56:55Z</time>
      </trkpt>
      <trkpt lat="49.30714" lon="2.48695">
        <ele>88</ele>
        <time>2011-09-08T12:57:07Z</time>
      </trkpt>
      <trkpt lat="49.30704" lon="2.48699">
        <ele>88</ele>
        <time>2011-09-08T12:57:17Z</time>
      </trkpt>
      <trkpt lat="49.30696" lon="2.48708">
        <ele>82</ele>
        <time>2011-09-08T12:57:31Z</time>
      </trkpt>
      <trkpt lat="49.30687" lon="2.48712">
        <ele>82</ele>
        <time>2011-09-08T12:57:41Z</time>
      </trkpt>
      <trkpt lat="49.30678" lon="2.48718">
        <ele>82</ele>
        <time>2011-09-08T12:57:52Z</time>
      </trkpt>
      <trkpt lat="49.30676" lon="2.48734">
        <ele>82</ele>
        <time>2011-09-08T12:57:59Z</time>
      </trkpt>
      <trkpt lat="49.3068" lon="2.48747">
        <ele>93</ele>
        <time>2011-09-08T12:58:07Z</time>
      </trkpt>
      <trkpt lat="49.30687" lon="2.48757">
        <ele>93</ele>
        <time>2011-09-08T12:58:13Z</time>
      </trkpt>
      <trkpt lat="49.30694" lon="2.48767">
        <ele>101</ele>
        <time>2011-09-08T12:58:21Z</time>
      </trkpt>
      <trkpt lat="49.30697" lon="2.4878">
        <ele>101</ele>
        <time>2011-09-08T12:58:31Z</time>
      </trkpt>
      <trkpt lat="49.307" lon="2.48795">
        <ele>101</ele>
        <time>2011-09-08T12:58:42Z</time>
      </trkpt>
      <trkpt lat="49.30705" lon="2.48806">
        <ele>95</ele>
        <time>2011-09-08T12:59:42Z</time>
      </trkpt>
      <trkpt lat="49.30715" lon="2.48806">
        <ele>95</ele>
        <time>2011-09-08T12:59:52Z</time>
      </trkpt>
      <trkpt lat="49.30725" lon="2.48806">
        <ele>95</ele>
        <time>2011-09-08T13:00:02Z</time>
      </trkpt>
      <trkpt lat="49.30735" lon="2.48805">
        <ele>95</ele>
        <time>2011-09-08T13:00:11Z</time>
      </trkpt>
      <trkpt lat="49.30745" lon="2.48806">
        <ele>95</ele>
        <time>2011-09-08T13:00:20Z</time>
      </trkpt>
      <trkpt lat="49.30755" lon="2.48803">
        <ele>95</ele>
        <time>2011-09-08T13:00:29Z</time>
      </trkpt>
      <trkpt lat="49.30764" lon="2.48802">
        <ele>95</ele>
        <time>2011-09-08T13:00:38Z</time>
      </trkpt>
      <trkpt lat="49.30774" lon="2.48801">
        <ele>95</ele>
        <time>2011-09-08T13:00:47Z</time>
      </trkpt>
      <trkpt lat="49.30783" lon="2.488">
        <ele>95</ele>
        <time>2011-09-08T13:00:56Z</time>
      </trkpt>
      <trkpt lat="49.30793" lon="2.48799">
        <ele>95</ele>
        <time>2011-09-08T13:01:05Z</time>
      </trkpt>
      <trkpt lat="49.30802" lon="2.48799">
        <ele>95</ele>
        <time>2011-09-08T13:01:13Z</time>
      </trkpt>
      <trkpt lat="49.30812" lon="2.48798">
        <ele>95</ele>
        <time>2011-09-08T13:01:22Z</time>
      </trkpt>
      <trkpt lat="49.30821" lon="2.48797">
        <ele>95</ele>
        <time>2011-09-08T13:01:31Z</time>
      </trkpt>
      <trkpt lat="49.30831" lon="2.48797">
        <ele>95</ele>
        <time>2011-09-08T13:01:41Z</time>
      </trkpt>
      <trkpt lat="49.3084" lon="2.48797">
        <ele>95</ele>
        <time>2011-09-08T13:01:50Z</time>
      </trkpt>
      <trkpt lat="49.30849" lon="2.48796">
        <ele>95</ele>
        <time>2011-09-08T13:01:59Z</time>
      </trkpt>
      <trkpt lat="49.3086" lon="2.48795">
        <ele>101</ele>
        <time>2011-09-08T13:02:08Z</time>
      </trkpt>
      <trkpt lat="49.30869" lon="2.48793">
        <ele>101</ele>
        <time>2011-09-08T13:02:18Z</time>
      </trkpt>
      <trkpt lat="49.30879" lon="2.48794">
        <ele>101</ele>
        <time>2011-09-08T13:02:27Z</time>
      </trkpt>
      <trkpt lat="49.30888" lon="2.48793">
        <ele>101</ele>
        <time>2011-09-08T13:02:36Z</time>
      </trkpt>
      <trkpt lat="49.30898" lon="2.48795">
        <ele>101</ele>
        <time>2011-09-08T13:02:48Z</time>
      </trkpt>
      <trkpt lat="49.30908" lon="2.48794">
        <ele>101</ele>
        <time>2011-09-08T13:02:58Z</time>
      </trkpt>
      <trkpt lat="49.30917" lon="2.48793">
        <ele>101</ele>
        <time>2011-09-08T13:03:06Z</time>
      </trkpt>
      <trkpt lat="49.30928" lon="2.48792">
        <ele>101</ele>
        <time>2011-09-08T13:03:14Z</time>
      </trkpt>
      <trkpt lat="49.30938" lon="2.48791">
        <ele>95</ele>
        <time>2011-09-08T13:03:27Z</time>
      </trkpt>
      <trkpt lat="49.30947" lon="2.48787">
        <ele>95</ele>
        <time>2011-09-08T13:03:37Z</time>
      </trkpt>
      <trkpt lat="49.30956" lon="2.48786">
        <ele>95</ele>
        <time>2011-09-08T13:03:46Z</time>
      </trkpt>
      <trkpt lat="49.30967" lon="2.48783">
        <ele>101</ele>
        <time>2011-09-08T13:03:55Z</time>
      </trkpt>
      <trkpt lat="49.30976" lon="2.48782">
        <ele>101</ele>
        <time>2011-09-08T13:04:03Z</time>
      </trkpt>
      <trkpt lat="49.30987" lon="2.48777">
        <ele>101</ele>
        <time>2011-09-08T13:04:16Z</time>
      </trkpt>
      <trkpt lat="49.30997" lon="2.48775">
        <ele>101</ele>
        <time>2011-09-08T13:04:27Z</time>
      </trkpt>
      <trkpt lat="49.31007" lon="2.48772">
        <ele>101</ele>
        <time>2011-09-08T13:04:36Z</time>
      </trkpt>
      <trkpt lat="49.31016" lon="2.48766">
        <ele>95</ele>
        <time>2011-09-08T13:04:47Z</time>
      </trkpt>
      <trkpt lat="49.31025" lon="2.48767">
        <ele>95</ele>
        <time>2011-09-08T13:04:54Z</time>
      </trkpt>
      <trkpt lat="49.31034" lon="2.48762">
        <ele>95</ele>
        <time>2011-09-08T13:05:05Z</time>
      </trkpt>
      <trkpt lat="49.31043" lon="2.48764">
        <ele>100</ele>
        <time>2011-09-08T13:05:13Z</time>
      </trkpt>
      <trkpt lat="49.31047" lon="2.48779">
        <ele>100</ele>
        <time>2011-09-08T13:05:25Z</time>
      </trkpt>
      <trkpt lat="49.31044" lon="2.48794">
        <ele>100</ele>
        <time>2011-09-08T13:05:35Z</time>
      </trkpt>
      <trkpt lat="49.31039" lon="2.48806">
        <ele>100</ele>
        <time>2011-09-08T13:05:49Z</time>
      </trkpt>
      <trkpt lat="49.31039" lon="2.48821">
        <ele>100</ele>
        <time>2011-09-08T13:05:57Z</time>
      </trkpt>
      <trkpt lat="49.31033" lon="2.48832">
        <ele>92</ele>
        <time>2011-09-08T13:06:04Z</time>
      </trkpt>
      <trkpt lat="49.31031" lon="2.48849">
        <ele>92</ele>
        <time>2011-09-08T13:06:14Z</time>
      </trkpt>
      <trkpt lat="49.31029" lon="2.48863">
        <ele>101</ele>
        <time>2011-09-08T13:06:23Z</time>
      </trkpt>
      <trkpt lat="49.31026" lon="2.48877">
        <ele>95</ele>
        <time>2011-09-08T13:06:32Z</time>
      </trkpt>
      <trkpt lat="49.31022" lon="2.48891">
        <ele>95</ele>
        <time>2011-09-08T13:06:42Z</time>
      </trkpt>
      <trkpt lat="49.31017" lon="2.48903">
        <ele>95</ele>
        <time>2011-09-08T13:06:54Z</time>
      </trkpt>
      <trkpt lat="49.31012" lon="2.48915">
        <ele>95</ele>
        <time>2011-09-08T13:07:02Z</time>
      </trkpt>
      <trkpt lat="49.31006" lon="2.48929">
        <ele>95</ele>
        <time>2011-09-08T13:07:10Z</time>
      </trkpt>
      <trkpt lat="49.31002" lon="2.48942">
        <ele>95</ele>
        <time>2011-09-08T13:07:20Z</time>
      </trkpt>
      <trkpt lat="49.30999" lon="2.48956">
        <ele>95</ele>
        <time>2011-09-08T13:07:26Z</time>
      </trkpt>
      <trkpt lat="49.30996" lon="2.4897">
        <ele>102</ele>
        <time>2011-09-08T13:07:34Z</time>
      </trkpt>
      <trkpt lat="49.30994" lon="2.48984">
        <ele>110</ele>
        <time>2011-09-08T13:07:43Z</time>
      </trkpt>
      <trkpt lat="49.30992" lon="2.48998">
        <ele>110</ele>
        <time>2011-09-08T13:07:50Z</time>
      </trkpt>
      <trkpt lat="49.30987" lon="2.4901">
        <ele>97</ele>
        <time>2011-09-08T13:08:02Z</time>
      </trkpt>
      <trkpt lat="49.30986" lon="2.49026">
        <ele>97</ele>
        <time>2011-09-08T13:08:13Z</time>
      </trkpt>
      <trkpt lat="49.30989" lon="2.4904">
        <ele>97</ele>
        <time>2011-09-08T13:08:22Z</time>
      </trkpt>
      <trkpt lat="49.30993" lon="2.49054">
        <ele>97</ele>
        <time>2011-09-08T13:08:30Z</time>
      </trkpt>
      <trkpt lat="49.30994" lon="2.49069">
        <ele>97</ele>
        <time>2011-09-08T13:08:36Z</time>
      </trkpt>
      <trkpt lat="49.30999" lon="2.49082">
        <ele>97</ele>
        <time>2011-09-08T13:08:45Z</time>
      </trkpt>
      <trkpt lat="49.31002" lon="2.49097">
        <ele>105</ele>
        <time>2011-09-08T13:08:51Z</time>
      </trkpt>
      <trkpt lat="49.31004" lon="2.4911">
        <ele>105</ele>
        <time>2011-09-08T13:08:57Z</time>
      </trkpt>
      <trkpt lat="49.31013" lon="2.49116">
        <ele>105</ele>
        <time>2011-09-08T13:09:09Z</time>
      </trkpt>
      <trkpt lat="49.31017" lon="2.49129">
        <ele>97</ele>
        <time>2011-09-08T13:09:19Z</time>
      </trkpt>
      <trkpt lat="49.31023" lon="2.49141">
        <ele>91</ele>
        <time>2011-09-08T13:09:32Z</time>
      </trkpt>
      <trkpt lat="49.31026" lon="2.49155">
        <ele>91</ele>
        <time>2011-09-08T13:09:41Z</time>
      </trkpt>
      <trkpt lat="49.31027" lon="2.4917">
        <ele>97</ele>
        <time>2011-09-08T13:09:49Z</time>
      </trkpt>
      <trkpt lat="49.31028" lon="2.49185">
        <ele>97</ele>
        <time>2011-09-08T13:10:36Z</time>
      </trkpt>
      <trkpt lat="49.31029" lon="2.492">
        <ele>97</ele>
        <time>2011-09-08T13:10:43Z</time>
      </trkpt>
      <trkpt lat="49.3103" lon="2.49214">
        <ele>97</ele>
        <time>2011-09-08T13:10:50Z</time>
      </trkpt>
      <trkpt lat="49.31031" lon="2.4923">
        <ele>97</ele>
        <time>2011-09-08T13:10:59Z</time>
      </trkpt>
      <trkpt lat="49.31033" lon="2.49245">
        <ele>97</ele>
        <time>2011-09-08T13:11:07Z</time>
      </trkpt>
      <trkpt lat="49.31032" lon="2.49259">
        <ele>97</ele>
        <time>2011-09-08T13:11:14Z</time>
      </trkpt>
      <trkpt lat="49.31033" lon="2.49274">
        <ele>97</ele>
        <time>2011-09-08T13:11:23Z</time>
      </trkpt>
      <trkpt lat="49.31033" lon="2.4929">
        <ele>97</ele>
        <time>2011-09-08T13:11:30Z</time>
      </trkpt>
      <trkpt lat="49.31033" lon="2.49304">
        <ele>97</ele>
        <time>2011-09-08T13:11:41Z</time>
      </trkpt>
      <trkpt lat="49.31034" lon="2.49318">
        <ele>97</ele>
        <time>2011-09-08T13:11:49Z</time>
      </trkpt>
      <trkpt lat="49.31036" lon="2.49333">
        <ele>103</ele>
        <time>2011-09-08T13:11:57Z</time>
      </trkpt>
      <trkpt lat="49.31036" lon="2.4935">
        <ele>103</ele>
        <time>2011-09-08T13:12:08Z</time>
      </trkpt>
      <trkpt lat="49.31036" lon="2.49364">
        <ele>103</ele>
        <time>2011-09-08T13:12:15Z</time>
      </trkpt>
      <trkpt lat="49.31039" lon="2.49379">
        <ele>103</ele>
        <time>2011-09-08T13:12:24Z</time>
      </trkpt>
      <trkpt lat="49.31039" lon="2.49393">
        <ele>103</ele>
        <time>2011-09-08T13:12:32Z</time>
      </trkpt>
      <trkpt lat="49.31039" lon="2.49408">
        <ele>103</ele>
        <time>2011-09-08T13:12:40Z</time>
      </trkpt>
      <trkpt lat="49.31041" lon="2.49422">
        <ele>103</ele>
        <time>2011-09-08T13:12:49Z</time>
      </trkpt>
      <trkpt lat="49.31037" lon="2.49435">
        <ele>103</ele>
        <time>2011-09-08T13:13:01Z</time>
      </trkpt>
      <trkpt lat="49.31027" lon="2.49439">
        <ele>95</ele>
        <time>2011-09-08T13:13:08Z</time>
      </trkpt>
      <trkpt lat="49.31018" lon="2.49448">
        <ele>95</ele>
        <time>2011-09-08T13:13:16Z</time>
      </trkpt>
      <trkpt lat="49.31012" lon="2.49458">
        <ele>95</ele>
        <time>2011-09-08T13:13:25Z</time>
      </trkpt>
      <trkpt lat="49.31002" lon="2.49461">
        <ele>90</ele>
        <time>2011-09-08T13:13:32Z</time>
      </trkpt>
      <trkpt lat="49.30995" lon="2.49472">
        <ele>90</ele>
        <time>2011-09-08T13:13:42Z</time>
      </trkpt>
      <trkpt lat="49.30989" lon="2.49483">
        <ele>98</ele>
        <time>2011-09-08T13:13:52Z</time>
      </trkpt>
      <trkpt lat="49.3098" lon="2.4949">
        <ele>98</ele>
        <time>2011-09-08T13:14:00Z</time>
      </trkpt>
      <trkpt lat="49.30973" lon="2.495">
        <ele>98</ele>
        <time>2011-09-08T13:14:09Z</time>
      </trkpt>
      <trkpt lat="49.30964" lon="2.49506">
        <ele>98</ele>
        <time>2011-09-08T13:14:18Z</time>
      </trkpt>
      <trkpt lat="49.30955" lon="2.49514">
        <ele>98</ele>
        <time>2011-09-08T13:14:27Z</time>
      </trkpt>
      <trkpt lat="49.30948" lon="2.49525">
        <ele>98</ele>
        <time>2011-09-08T13:14:36Z</time>
      </trkpt>
      <trkpt lat="49.30939" lon="2.49532">
        <ele>98</ele>
        <time>2011-09-08T13:14:45Z</time>
      </trkpt>
      <trkpt lat="49.30932" lon="2.49541">
        <ele>98</ele>
        <time>2011-09-08T13:14:54Z</time>
      </trkpt>
      <trkpt lat="49.30925" lon="2.4955">
        <ele>98</ele>
        <time>2011-09-08T13:15:03Z</time>
      </trkpt>
      <trkpt lat="49.30916" lon="2.49558">
        <ele>98</ele>
        <time>2011-09-08T13:15:11Z</time>
      </trkpt>
      <trkpt lat="49.30909" lon="2.49567">
        <ele>92</ele>
        <time>2011-09-08T13:15:19Z</time>
      </trkpt>
      <trkpt lat="49.30903" lon="2.49579">
        <ele>92</ele>
        <time>2011-09-08T13:15:28Z</time>
      </trkpt>
      <trkpt lat="49.30896" lon="2.4959">
        <ele>99</ele>
        <time>2011-09-08T13:15:38Z</time>
      </trkpt>
      <trkpt lat="49.30891" lon="2.49601">
        <ele>99</ele>
        <time>2011-09-08T13:15:48Z</time>
      </trkpt>
      <trkpt lat="49.30883" lon="2.4961">
        <ele>99</ele>
        <time>2011-09-08T13:15:57Z</time>
      </trkpt>
      <trkpt lat="49.30877" lon="2.49622">
        <ele>99</ele>
        <time>2011-09-08T13:16:07Z</time>
      </trkpt>
      <trkpt lat="49.30872" lon="2.49634">
        <ele>99</ele>
        <time>2011-09-08T13:16:17Z</time>
      </trkpt>
      <trkpt lat="49.30866" lon="2.49645">
        <ele>99</ele>
        <time>2011-09-08T13:16:26Z</time>
      </trkpt>
      <trkpt lat="49.3086" lon="2.49655">
        <ele>106</ele>
        <time>2011-09-08T13:16:36Z</time>
      </trkpt>
      <trkpt lat="49.30854" lon="2.49666">
        <ele>106</ele>
        <time>2011-09-08T13:16:45Z</time>
      </trkpt>
      <trkpt lat="49.30848" lon="2.49676">
        <ele>106</ele>
        <time>2011-09-08T13:16:54Z</time>
      </trkpt>
      <trkpt lat="49.30841" lon="2.49686">
        <ele>101</ele>
        <time>2011-09-08T13:17:03Z</time>
      </trkpt>
      <trkpt lat="49.30834" lon="2.49696">
        <ele>101</ele>
        <time>2011-09-08T13:17:11Z</time>
      </trkpt>
      <trkpt lat="49.30828" lon="2.49707">
        <ele>101</ele>
        <time>2011-09-08T13:17:21Z</time>
      </trkpt>
      <trkpt lat="49.30822" lon="2.49718">
        <ele>101</ele>
        <time>2011-09-08T13:17:29Z</time>
      </trkpt>
      <trkpt lat="49.30816" lon="2.4973">
        <ele>101</ele>
        <time>2011-09-08T13:17:39Z</time>
      </trkpt>
      <trkpt lat="49.30808" lon="2.49738">
        <ele>101</ele>
        <time>2011-09-08T13:17:49Z</time>
      </trkpt>
      <trkpt lat="49.30802" lon="2.49749">
        <ele>101</ele>
        <time>2011-09-08T13:18:00Z</time>
      </trkpt>
      <trkpt lat="49.30797" lon="2.49761">
        <ele>101</ele>
        <time>2011-09-08T13:18:10Z</time>
      </trkpt>
      <trkpt lat="49.3079" lon="2.49772">
        <ele>107</ele>
        <time>2011-09-08T13:18:19Z</time>
      </trkpt>
      <trkpt lat="49.30782" lon="2.49781">
        <ele>107</ele>
        <time>2011-09-08T13:18:26Z</time>
      </trkpt>
      <trkpt lat="49.30775" lon="2.49793">
        <ele>101</ele>
        <time>2011-09-08T13:18:35Z</time>
      </trkpt>
      <trkpt lat="49.3077" lon="2.49804">
        <ele>101</ele>
        <time>2011-09-08T13:18:45Z</time>
      </trkpt>
      <trkpt lat="49.3076" lon="2.49807">
        <ele>93</ele>
        <time>2011-09-08T13:18:51Z</time>
      </trkpt>
      <trkpt lat="49.30752" lon="2.49816">
        <ele>93</ele>
        <time>2011-09-08T13:19:00Z</time>
      </trkpt>
      <trkpt lat="49.30751" lon="2.49831">
        <ele>101</ele>
        <time>2011-09-08T13:19:08Z</time>
      </trkpt>
      <trkpt lat="49.30745" lon="2.49843">
        <ele>101</ele>
        <time>2011-09-08T13:19:16Z</time>
      </trkpt>
      <trkpt lat="49.30741" lon="2.49857">
        <ele>101</ele>
        <time>2011-09-08T13:19:27Z</time>
      </trkpt>
      <trkpt lat="49.30734" lon="2.49867">
        <ele>101</ele>
        <time>2011-09-08T13:19:38Z</time>
      </trkpt>
      <trkpt lat="49.30729" lon="2.49879">
        <ele>101</ele>
        <time>2011-09-08T13:19:47Z</time>
      </trkpt>
      <trkpt lat="49.30722" lon="2.4989">
        <ele>101</ele>
        <time>2011-09-08T13:19:57Z</time>
      </trkpt>
      <trkpt lat="49.30719" lon="2.49903">
        <ele>101</ele>
        <time>2011-09-08T13:20:05Z</time>
      </trkpt>
      <trkpt lat="49.30711" lon="2.4991">
        <ele>110</ele>
        <time>2011-09-08T13:20:14Z</time>
      </trkpt>
      <trkpt lat="49.30702" lon="2.49916">
        <ele>104</ele>
        <time>2011-09-08T13:20:20Z</time>
      </trkpt>
      <trkpt lat="49.30697" lon="2.49928">
        <ele>104</ele>
        <time>2011-09-08T13:20:29Z</time>
      </trkpt>
      <trkpt lat="49.30692" lon="2.49942">
        <ele>104</ele>
        <time>2011-09-08T13:20:41Z</time>
      </trkpt>
      <trkpt lat="49.30684" lon="2.49951">
        <ele>95</ele>
        <time>2011-09-08T13:20:50Z</time>
      </trkpt>
      <trkpt lat="49.30678" lon="2.49963">
        <ele>95</ele>
        <time>2011-09-08T13:21:04Z</time>
      </trkpt>
      <trkpt lat="49.30671" lon="2.49973">
        <ele>87</ele>
        <time>2011-09-08T13:21:13Z</time>
      </trkpt>
      <trkpt lat="49.30666" lon="2.49985">
        <ele>87</ele>
        <time>2011-09-08T13:21:23Z</time>
      </trkpt>
      <trkpt lat="49.30662" lon="2.49998">
        <ele>87</ele>
        <time>2011-09-08T13:21:31Z</time>
      </trkpt>
      <trkpt lat="49.30656" lon="2.50009">
        <ele>96</ele>
        <time>2011-09-08T13:21:44Z</time>
      </trkpt>
      <trkpt lat="49.30648" lon="2.50018">
        <ele>96</ele>
        <time>2011-09-08T13:21:51Z</time>
      </trkpt>
      <trkpt lat="49.3064" lon="2.50027">
        <ele>96</ele>
        <time>2011-09-08T13:21:58Z</time>
      </trkpt>
      <trkpt lat="49.30633" lon="2.50037">
        <ele>90</ele>
        <time>2011-09-08T13:22:08Z</time>
      </trkpt>
      <trkpt lat="49.30624" lon="2.50046">
        <ele>90</ele>
        <time>2011-09-08T13:22:17Z</time>
      </trkpt>
      <trkpt lat="49.3062" lon="2.50059">
        <ele>83</ele>
        <time>2011-09-08T13:22:26Z</time>
      </trkpt>
      <trkpt lat="49.30613" lon="2.50069">
        <ele>77</ele>
        <time>2011-09-08T13:22:33Z</time>
      </trkpt>
      <trkpt lat="49.30608" lon="2.50081">
        <ele>77</ele>
        <time>2011-09-08T13:22:41Z</time>
      </trkpt>
      <trkpt lat="49.306" lon="2.5009">
        <ele>86</ele>
        <time>2011-09-08T13:22:51Z</time>
      </trkpt>
      <trkpt lat="49.30594" lon="2.50102">
        <ele>86</ele>
        <time>2011-09-08T13:22:59Z</time>
      </trkpt>
      <trkpt lat="49.30586" lon="2.5011">
        <ele>86</ele>
        <time>2011-09-08T13:23:05Z</time>
      </trkpt>
      <trkpt lat="49.30582" lon="2.50122">
        <ele>86</ele>
        <time>2011-09-08T13:23:17Z</time>
      </trkpt>
      <trkpt lat="49.30575" lon="2.50134">
        <ele>86</ele>
        <time>2011-09-08T13:23:27Z</time>
      </trkpt>
      <trkpt lat="49.3057" lon="2.50146">
        <ele>93</ele>
        <time>2011-09-08T13:23:35Z</time>
      </trkpt>
      <trkpt lat="49.30563" lon="2.50155">
        <ele>93</ele>
        <time>2011-09-08T13:23:42Z</time>
      </trkpt>
      <trkpt lat="49.3056" lon="2.50168">
        <ele>93</ele>
        <time>2011-09-08T13:23:51Z</time>
      </trkpt>
      <trkpt lat="49.30552" lon="2.50174">
        <ele>93</ele>
        <time>2011-09-08T13:24:02Z</time>
      </trkpt>
      <trkpt lat="49.30547" lon="2.50187">
        <ele>93</ele>
        <time>2011-09-08T13:24:10Z</time>
      </trkpt>
      <trkpt lat="49.3054" lon="2.50196">
        <ele>93</ele>
        <time>2011-09-08T13:24:21Z</time>
      </trkpt>
      <trkpt lat="49.30532" lon="2.50202">
        <ele>82</ele>
        <time>2011-09-08T13:24:30Z</time>
      </trkpt>
      <trkpt lat="49.30526" lon="2.50215">
        <ele>77</ele>
        <time>2011-09-08T13:24:40Z</time>
      </trkpt>
      <trkpt lat="49.30523" lon="2.50228">
        <ele>85</ele>
        <time>2011-09-08T13:24:49Z</time>
      </trkpt>
      <trkpt lat="49.30515" lon="2.5024">
        <ele>85</ele>
        <time>2011-09-08T13:25:00Z</time>
      </trkpt>
      <trkpt lat="49.30507" lon="2.50251">
        <ele>85</ele>
        <time>2011-09-08T13:25:07Z</time>
      </trkpt>
      <trkpt lat="49.305" lon="2.50263">
        <ele>85</ele>
        <time>2011-09-08T13:25:15Z</time>
      </trkpt>
      <trkpt lat="49.30495" lon="2.50274">
        <ele>85</ele>
        <time>2011-09-08T13:25:28Z</time>
      </trkpt>
      <trkpt lat="49.30488" lon="2.50283">
        <ele>85</ele>
        <time>2011-09-08T13:25:36Z</time>
      </trkpt>
      <trkpt lat="49.30481" lon="2.50294">
        <ele>85</ele>
        <time>2011-09-08T13:25:45Z</time>
      </trkpt>
      <trkpt lat="49.30474" lon="2.50304">
        <ele>85</ele>
        <time>2011-09-08T13:25:54Z</time>
      </trkpt>
      <trkpt lat="49.30468" lon="2.50314">
        <ele>77</ele>
        <time>2011-09-08T13:26:05Z</time>
      </trkpt>
      <trkpt lat="49.30463" lon="2.50326">
        <ele>77</ele>
        <time>2011-09-08T13:26:15Z</time>
      </trkpt>
      <trkpt lat="49.30457" lon="2.50339">
        <ele>77</ele>
        <time>2011-09-08T13:26:24Z</time>
      </trkpt>
      <trkpt lat="49.30449" lon="2.50345">
        <ele>77</ele>
        <time>2011-09-08T13:26:31Z</time>
      </trkpt>
      <trkpt lat="49.3044" lon="2.50349">
        <ele>68</ele>
        <time>2011-09-08T13:26:39Z</time>
      </trkpt>
      <trkpt lat="49.30435" lon="2.50363">
        <ele>79</ele>
        <time>2011-09-08T13:26:48Z</time>
      </trkpt>
      <trkpt lat="49.30431" lon="2.50376">
        <ele>92</ele>
        <time>2011-09-08T13:26:58Z</time>
      </trkpt>
      <trkpt lat="49.30422" lon="2.50396">
        <ele>99</ele>
        <time>2011-09-08T13:27:11Z</time>
      </trkpt>
      <trkpt lat="49.30417" lon="2.50408">
        <ele>99</ele>
        <time>2011-09-08T13:27:14Z</time>
      </trkpt>
      <trkpt lat="49.30408" lon="2.50408">
        <ele>84</ele>
        <time>2011-09-08T13:27:23Z</time>
      </trkpt>
      <trkpt lat="49.30401" lon="2.50418">
        <ele>84</ele>
        <time>2011-09-08T13:27:31Z</time>
      </trkpt>
      <trkpt lat="49.30393" lon="2.50428">
        <ele>84</ele>
        <time>2011-09-08T13:27:42Z</time>
      </trkpt>
      <trkpt lat="49.30387" lon="2.50439">
        <ele>84</ele>
        <time>2011-09-08T13:27:50Z</time>
      </trkpt>
      <trkpt lat="49.30379" lon="2.50448">
        <ele>93</ele>
        <time>2011-09-08T13:28:02Z</time>
      </trkpt>
      <trkpt lat="49.30371" lon="2.50457">
        <ele>85</ele>
        <time>2011-09-08T13:28:10Z</time>
      </trkpt>
      <trkpt lat="49.30366" lon="2.50468">
        <ele>85</ele>
        <time>2011-09-08T13:28:19Z</time>
      </trkpt>
      <trkpt lat="49.30359" lon="2.50478">
        <ele>78</ele>
        <time>2011-09-08T13:28:30Z</time>
      </trkpt>
      <trkpt lat="49.30354" lon="2.50492">
        <ele>78</ele>
        <time>2011-09-08T13:28:41Z</time>
      </trkpt>
      <trkpt lat="49.30348" lon="2.50502">
        <ele>78</ele>
        <time>2011-09-08T13:28:54Z</time>
      </trkpt>
      <trkpt lat="49.3034" lon="2.5051">
        <ele>78</ele>
        <time>2011-09-08T13:29:04Z</time>
      </trkpt>
      <trkpt lat="49.30333" lon="2.5052">
        <ele>84</ele>
        <time>2011-09-08T13:29:12Z</time>
      </trkpt>
      <trkpt lat="49.30324" lon="2.50529">
        <ele>84</ele>
        <time>2011-09-08T13:29:18Z</time>
      </trkpt>
      <trkpt lat="49.30315" lon="2.50532">
        <ele>75</ele>
        <time>2011-09-08T13:29:24Z</time>
      </trkpt>
      <trkpt lat="49.30311" lon="2.50546">
        <ele>82</ele>
        <time>2011-09-08T13:29:33Z</time>
      </trkpt>
      <trkpt lat="49.30304" lon="2.50555">
        <ele>82</ele>
        <time>2011-09-08T13:29:44Z</time>
      </trkpt>
      <trkpt lat="49.30307" lon="2.50541">
        <ele>95</ele>
        <time>2011-09-08T13:30:01Z</time>
      </trkpt>
      <trkpt lat="49.3031" lon="2.50527">
        <ele>95</ele>
        <time>2011-09-08T13:30:11Z</time>
      </trkpt>
      <trkpt lat="49.30305" lon="2.50511">
        <ele>95</ele>
        <time>2011-09-08T13:30:25Z</time>
      </trkpt>
      <trkpt lat="49.30303" lon="2.50496">
        <ele>95</ele>
        <time>2011-09-08T13:30:31Z</time>
      </trkpt>
      <trkpt lat="49.30309" lon="2.50485">
        <ele>103</ele>
        <time>2011-09-08T13:30:39Z</time>
      </trkpt>
      <trkpt lat="49.30311" lon="2.50471">
        <ele>91</ele>
        <time>2011-09-08T13:30:55Z</time>
      </trkpt>
      <trkpt lat="49.30309" lon="2.50455">
        <ele>84</ele>
        <time>2011-09-08T13:31:06Z</time>
      </trkpt>
      <trkpt lat="49.30308" lon="2.5044">
        <ele>84</ele>
        <time>2011-09-08T13:31:17Z</time>
      </trkpt>
      <trkpt lat="49.3031" lon="2.50426">
        <ele>91</ele>
        <time>2011-09-08T13:31:26Z</time>
      </trkpt>
      <trkpt lat="49.30305" lon="2.50414">
        <ele>91</ele>
        <time>2011-09-08T13:31:31Z</time>
      </trkpt>
      <trkpt lat="49.30301" lon="2.504">
        <ele>98</ele>
        <time>2011-09-08T13:31:40Z</time>
      </trkpt>
      <trkpt lat="49.30297" lon="2.50387">
        <ele>98</ele>
        <time>2011-09-08T13:31:49Z</time>
      </trkpt>
      <trkpt lat="49.30294" lon="2.50374">
        <ele>98</ele>
        <time>2011-09-08T13:31:58Z</time>
      </trkpt>
      <trkpt lat="49.30291" lon="2.50361">
        <ele>98</ele>
        <time>2011-09-08T13:32:07Z</time>
      </trkpt>
      <trkpt lat="49.30289" lon="2.50347">
        <ele>98</ele>
        <time>2011-09-08T13:32:16Z</time>
      </trkpt>
      <trkpt lat="49.30287" lon="2.50333">
        <ele>98</ele>
        <time>2011-09-08T13:32:25Z</time>
      </trkpt>
      <trkpt lat="49.30285" lon="2.50317">
        <ele>98</ele>
        <time>2011-09-08T13:32:35Z</time>
      </trkpt>
      <trkpt lat="49.30282" lon="2.50304">
        <ele>98</ele>
        <time>2011-09-08T13:32:44Z</time>
      </trkpt>
      <trkpt lat="49.3028" lon="2.5029">
        <ele>98</ele>
        <time>2011-09-08T13:32:52Z</time>
      </trkpt>
      <trkpt lat="49.30277" lon="2.50275">
        <ele>98</ele>
        <time>2011-09-08T13:33:01Z</time>
      </trkpt>
      <trkpt lat="49.30276" lon="2.50261">
        <ele>98</ele>
        <time>2011-09-08T13:33:10Z</time>
      </trkpt>
      <trkpt lat="49.30273" lon="2.50246">
        <ele>98</ele>
        <time>2011-09-08T13:33:19Z</time>
      </trkpt>
      <trkpt lat="49.30271" lon="2.50233">
        <ele>98</ele>
        <time>2011-09-08T13:33:27Z</time>
      </trkpt>
      <trkpt lat="49.30268" lon="2.50219">
        <ele>98</ele>
        <time>2011-09-08T13:33:35Z</time>
      </trkpt>
      <trkpt lat="49.30266" lon="2.50206">
        <ele>98</ele>
        <time>2011-09-08T13:33:43Z</time>
      </trkpt>
      <trkpt lat="49.30264" lon="2.50192">
        <ele>98</ele>
        <time>2011-09-08T13:33:52Z</time>
      </trkpt>
      <trkpt lat="49.30262" lon="2.50177">
        <ele>98</ele>
        <time>2011-09-08T13:34:01Z</time>
      </trkpt>
      <trkpt lat="49.3026" lon="2.50162">
        <ele>98</ele>
        <time>2011-09-08T13:34:10Z</time>
      </trkpt>
      <trkpt lat="49.30258" lon="2.50148">
        <ele>98</ele>
        <time>2011-09-08T13:34:19Z</time>
      </trkpt>
      <trkpt lat="49.30256" lon="2.50133">
        <ele>98</ele>
        <time>2011-09-08T13:34:28Z</time>
      </trkpt>
      <trkpt lat="49.30254" lon="2.50119">
        <ele>98</ele>
        <time>2011-09-08T13:34:37Z</time>
      </trkpt>
      <trkpt lat="49.30251" lon="2.50104">
        <ele>98</ele>
        <time>2011-09-08T13:34:46Z</time>
      </trkpt>
      <trkpt lat="49.3025" lon="2.5009">
        <ele>98</ele>
        <time>2011-09-08T13:34:55Z</time>
      </trkpt>
      <trkpt lat="49.30248" lon="2.50077">
        <ele>98</ele>
        <time>2011-09-08T13:35:03Z</time>
      </trkpt>
      <trkpt lat="49.30245" lon="2.50062">
        <ele>98</ele>
        <time>2011-09-08T13:35:12Z</time>
      </trkpt>
      <trkpt lat="49.30243" lon="2.50047">
        <ele>98</ele>
        <time>2011-09-08T13:35:22Z</time>
      </trkpt>
      <trkpt lat="49.30241" lon="2.50032">
        <ele>98</ele>
        <time>2011-09-08T13:35:33Z</time>
      </trkpt>
      <trkpt lat="49.3024" lon="2.50016">
        <ele>98</ele>
        <time>2011-09-08T13:35:42Z</time>
      </trkpt>
      <trkpt lat="49.30239" lon="2.50002">
        <ele>98</ele>
        <time>2011-09-08T13:35:51Z</time>
      </trkpt>
      <trkpt lat="49.30239" lon="2.49987">
        <ele>98</ele>
        <time>2011-09-08T13:36:01Z</time>
      </trkpt>
      <trkpt lat="49.30239" lon="2.49972">
        <ele>98</ele>
        <time>2011-09-08T13:36:10Z</time>
      </trkpt>
      <trkpt lat="49.30238" lon="2.49956">
        <ele>98</ele>
        <time>2011-09-08T13:36:20Z</time>
      </trkpt>
      <trkpt lat="49.30238" lon="2.49942">
        <ele>98</ele>
        <time>2011-09-08T13:36:28Z</time>
      </trkpt>
      <trkpt lat="49.30237" lon="2.49927">
        <ele>98</ele>
        <time>2011-09-08T13:36:37Z</time>
      </trkpt>
      <trkpt lat="49.30237" lon="2.49912">
        <ele>98</ele>
        <time>2011-09-08T13:36:46Z</time>
      </trkpt>
      <trkpt lat="49.30236" lon="2.49898">
        <ele>98</ele>
        <time>2011-09-08T13:36:56Z</time>
      </trkpt>
      <trkpt lat="49.30236" lon="2.49884">
        <ele>98</ele>
        <time>2011-09-08T13:37:05Z</time>
      </trkpt>
      <trkpt lat="49.30236" lon="2.49869">
        <ele>98</ele>
        <time>2011-09-08T13:37:15Z</time>
      </trkpt>
      <trkpt lat="49.30235" lon="2.49854">
        <ele>98</ele>
        <time>2011-09-08T13:37:25Z</time>
      </trkpt>
      <trkpt lat="49.30235" lon="2.49839">
        <ele>98</ele>
        <time>2011-09-08T13:37:33Z</time>
      </trkpt>
      <trkpt lat="49.30235" lon="2.49824">
        <ele>98</ele>
        <time>2011-09-08T13:37:43Z</time>
      </trkpt>
      <trkpt lat="49.30234" lon="2.49809">
        <ele>98</ele>
        <time>2011-09-08T13:37:54Z</time>
      </trkpt>
      <trkpt lat="49.30233" lon="2.49794">
        <ele>98</ele>
        <time>2011-09-08T13:38:04Z</time>
      </trkpt>
      <trkpt lat="49.3023" lon="2.49779">
        <ele>98</ele>
        <time>2011-09-08T13:38:13Z</time>
      </trkpt>
      <trkpt lat="49.30229" lon="2.49765">
        <ele>98</ele>
        <time>2011-09-08T13:38:23Z</time>
      </trkpt>
      <trkpt lat="49.30229" lon="2.49751">
        <ele>98</ele>
        <time>2011-09-08T13:38:32Z</time>
      </trkpt>
      <trkpt lat="49.30227" lon="2.49736">
        <ele>98</ele>
        <time>2011-09-08T13:38:41Z</time>
      </trkpt>
      <trkpt lat="49.30226" lon="2.49721">
        <ele>98</ele>
        <time>2011-09-08T13:38:50Z</time>
      </trkpt>
      <trkpt lat="49.30224" lon="2.49707">
        <ele>98</ele>
        <time>2011-09-08T13:38:59Z</time>
      </trkpt>
      <trkpt lat="49.30222" lon="2.49691">
        <ele>98</ele>
        <time>2011-09-08T13:39:09Z</time>
      </trkpt>
      <trkpt lat="49.3022" lon="2.49678">
        <ele>98</ele>
        <time>2011-09-08T13:39:18Z</time>
      </trkpt>
      <trkpt lat="49.30218" lon="2.49663">
        <ele>98</ele>
        <time>2011-09-08T13:39:29Z</time>
      </trkpt>
      <trkpt lat="49.30216" lon="2.49648">
        <ele>98</ele>
        <time>2011-09-08T13:39:39Z</time>
      </trkpt>
      <trkpt lat="49.30214" lon="2.49634">
        <ele>98</ele>
        <time>2011-09-08T13:39:49Z</time>
      </trkpt>
      <trkpt lat="49.30212" lon="2.49619">
        <ele>98</ele>
        <time>2011-09-08T13:40:00Z</time>
      </trkpt>
      <trkpt lat="49.3021" lon="2.49605">
        <ele>98</ele>
        <time>2011-09-08T13:40:10Z</time>
      </trkpt>
      <trkpt lat="49.30208" lon="2.49592">
        <ele>98</ele>
        <time>2011-09-08T13:40:19Z</time>
      </trkpt>
      <trkpt lat="49.30206" lon="2.49578">
        <ele>98</ele>
        <time>2011-09-08T13:40:28Z</time>
      </trkpt>
      <trkpt lat="49.30203" lon="2.49564">
        <ele>98</ele>
        <time>2011-09-08T13:40:38Z</time>
      </trkpt>
      <trkpt lat="49.302" lon="2.49549">
        <ele>98</ele>
        <time>2011-09-08T13:40:47Z</time>
      </trkpt>
      <trkpt lat="49.30198" lon="2.49536">
        <ele>98</ele>
        <time>2011-09-08T13:40:56Z</time>
      </trkpt>
      <trkpt lat="49.30194" lon="2.49521">
        <ele>98</ele>
        <time>2011-09-08T13:41:05Z</time>
      </trkpt>
      <trkpt lat="49.30192" lon="2.49506">
        <ele>98</ele>
        <time>2011-09-08T13:41:15Z</time>
      </trkpt>
      <trkpt lat="49.3019" lon="2.49492">
        <ele>98</ele>
        <time>2011-09-08T13:41:23Z</time>
      </trkpt>
      <trkpt lat="49.30188" lon="2.49477">
        <ele>98</ele>
        <time>2011-09-08T13:41:33Z</time>
      </trkpt>
      <trkpt lat="49.30185" lon="2.49464">
        <ele>98</ele>
        <time>2011-09-08T13:41:42Z</time>
      </trkpt>
      <trkpt lat="49.30183" lon="2.4945">
        <ele>98</ele>
        <time>2011-09-08T13:41:52Z</time>
      </trkpt>
      <trkpt lat="49.3018" lon="2.49436">
        <ele>98</ele>
        <time>2011-09-08T13:42:02Z</time>
      </trkpt>
      <trkpt lat="49.30177" lon="2.49422">
        <ele>98</ele>
        <time>2011-09-08T13:42:11Z</time>
      </trkpt>
      <trkpt lat="49.30174" lon="2.49408">
        <ele>98</ele>
        <time>2011-09-08T13:42:21Z</time>
      </trkpt>
      <trkpt lat="49.30172" lon="2.49395">
        <ele>98</ele>
        <time>2011-09-08T13:42:30Z</time>
      </trkpt>
      <trkpt lat="49.30169" lon="2.4938">
        <ele>98</ele>
        <time>2011-09-08T13:42:39Z</time>
      </trkpt>
      <trkpt lat="49.30166" lon="2.49367">
        <ele>98</ele>
        <time>2011-09-08T13:42:48Z</time>
      </trkpt>
      <trkpt lat="49.30164" lon="2.49354">
        <ele>98</ele>
        <time>2011-09-08T13:42:57Z</time>
      </trkpt>
      <trkpt lat="49.30161" lon="2.4934">
        <ele>98</ele>
        <time>2011-09-08T13:43:07Z</time>
      </trkpt>
      <trkpt lat="49.30159" lon="2.49326">
        <ele>98</ele>
        <time>2011-09-08T13:43:17Z</time>
      </trkpt>
      <trkpt lat="49.30157" lon="2.49311">
        <ele>98</ele>
        <time>2011-09-08T13:43:26Z</time>
      </trkpt>
      <trkpt lat="49.30155" lon="2.49296">
        <ele>98</ele>
        <time>2011-09-08T13:43:37Z</time>
      </trkpt>
      <trkpt lat="49.30153" lon="2.49282">
        <ele>98</ele>
        <time>2011-09-08T13:43:48Z</time>
      </trkpt>
      <trkpt lat="49.30151" lon="2.49267">
        <ele>98</ele>
        <time>2011-09-08T13:43:59Z</time>
      </trkpt>
      <trkpt lat="49.30149" lon="2.49253">
        <ele>98</ele>
        <time>2011-09-08T13:44:08Z</time>
      </trkpt>
      <trkpt lat="49.30149" lon="2.49239">
        <ele>105</ele>
        <time>2011-09-08T13:44:17Z</time>
      </trkpt>
      <trkpt lat="49.30147" lon="2.49224">
        <ele>105</ele>
        <time>2011-09-08T13:44:27Z</time>
      </trkpt>
      <trkpt lat="49.30146" lon="2.4921">
        <ele>105</ele>
        <time>2011-09-08T13:44:36Z</time>
      </trkpt>
      <trkpt lat="49.30145" lon="2.49195">
        <ele>111</ele>
        <time>2011-09-08T13:44:45Z</time>
      </trkpt>
      <trkpt lat="49.30142" lon="2.49182">
        <ele>111</ele>
        <time>2011-09-08T13:44:53Z</time>
      </trkpt>
      <trkpt lat="49.3014" lon="2.49168">
        <ele>111</ele>
        <time>2011-09-08T13:45:02Z</time>
      </trkpt>
      <trkpt lat="49.30137" lon="2.49155">
        <ele>111</ele>
        <time>2011-09-08T13:45:12Z</time>
      </trkpt>
      <trkpt lat="49.30135" lon="2.49141">
        <ele>111</ele>
        <time>2011-09-08T13:45:21Z</time>
      </trkpt>
      <trkpt lat="49.30132" lon="2.49126">
        <ele>111</ele>
        <time>2011-09-08T13:45:31Z</time>
      </trkpt>
      <trkpt lat="49.30128" lon="2.49113">
        <ele>111</ele>
        <time>2011-09-08T13:45:40Z</time>
      </trkpt>
      <trkpt lat="49.30125" lon="2.49099">
        <ele>111</ele>
        <time>2011-09-08T13:45:49Z</time>
      </trkpt>
      <trkpt lat="49.30122" lon="2.49086">
        <ele>111</ele>
        <time>2011-09-08T13:45:58Z</time>
      </trkpt>
      <trkpt lat="49.30119" lon="2.49071">
        <ele>111</ele>
        <time>2011-09-08T13:46:08Z</time>
      </trkpt>
      <trkpt lat="49.30116" lon="2.49058">
        <ele>111</ele>
        <time>2011-09-08T13:46:17Z</time>
      </trkpt>
      <trkpt lat="49.30114" lon="2.49044">
        <ele>111</ele>
        <time>2011-09-08T13:46:26Z</time>
      </trkpt>
      <trkpt lat="49.3011" lon="2.4903">
        <ele>111</ele>
        <time>2011-09-08T13:46:36Z</time>
      </trkpt>
      <trkpt lat="49.30108" lon="2.49016">
        <ele>111</ele>
        <time>2011-09-08T13:46:46Z</time>
      </trkpt>
      <trkpt lat="49.30103" lon="2.49001">
        <ele>111</ele>
        <time>2011-09-08T13:46:56Z</time>
      </trkpt>
      <trkpt lat="49.301" lon="2.48988">
        <ele>111</ele>
        <time>2011-09-08T13:47:06Z</time>
      </trkpt>
      <trkpt lat="49.30098" lon="2.48974">
        <ele>111</ele>
        <time>2011-09-08T13:47:16Z</time>
      </trkpt>
      <trkpt lat="49.30094" lon="2.48961">
        <ele>111</ele>
        <time>2011-09-08T13:47:25Z</time>
      </trkpt>
      <trkpt lat="49.3009" lon="2.48947">
        <ele>111</ele>
        <time>2011-09-08T13:47:34Z</time>
      </trkpt>
      <trkpt lat="49.30087" lon="2.48934">
        <ele>117</ele>
        <time>2011-09-08T13:47:43Z</time>
      </trkpt>
      <trkpt lat="49.30082" lon="2.48921">
        <ele>117</ele>
        <time>2011-09-08T13:47:52Z</time>
      </trkpt>
      <trkpt lat="49.30077" lon="2.48909">
        <ele>117</ele>
        <time>2011-09-08T13:48:01Z</time>
      </trkpt>
      <trkpt lat="49.30072" lon="2.48896">
        <ele>117</ele>
        <time>2011-09-08T13:48:10Z</time>
      </trkpt>
      <trkpt lat="49.30068" lon="2.48884">
        <ele>117</ele>
        <time>2011-09-08T13:48:19Z</time>
      </trkpt>
      <trkpt lat="49.30063" lon="2.4887">
        <ele>117</ele>
        <time>2011-09-08T13:48:28Z</time>
      </trkpt>
      <trkpt lat="49.30059" lon="2.48857">
        <ele>117</ele>
        <time>2011-09-08T13:48:37Z</time>
      </trkpt>
      <trkpt lat="49.30054" lon="2.48843">
        <ele>117</ele>
        <time>2011-09-08T13:48:47Z</time>
      </trkpt>
      <trkpt lat="49.30049" lon="2.4883">
        <ele>117</ele>
        <time>2011-09-08T13:48:57Z</time>
      </trkpt>
      <trkpt lat="49.30045" lon="2.48817">
        <ele>117</ele>
        <time>2011-09-08T13:49:06Z</time>
      </trkpt>
      <trkpt lat="49.30041" lon="2.48803">
        <ele>117</ele>
        <time>2011-09-08T13:49:15Z</time>
      </trkpt>
      <trkpt lat="49.30037" lon="2.48789">
        <ele>117</ele>
        <time>2011-09-08T13:49:24Z</time>
      </trkpt>
      <trkpt lat="49.30032" lon="2.48777">
        <ele>117</ele>
        <time>2011-09-08T13:49:33Z</time>
      </trkpt>
      <trkpt lat="49.30028" lon="2.48763">
        <ele>117</ele>
        <time>2011-09-08T13:49:42Z</time>
      </trkpt>
      <trkpt lat="49.30023" lon="2.48751">
        <ele>117</ele>
        <time>2011-09-08T13:49:51Z</time>
      </trkpt>
      <trkpt lat="49.30019" lon="2.48736">
        <ele>117</ele>
        <time>2011-09-08T13:50:00Z</time>
      </trkpt>
      <trkpt lat="49.30015" lon="2.48723">
        <ele>117</ele>
        <time>2011-09-08T13:50:09Z</time>
      </trkpt>
      <trkpt lat="49.30011" lon="2.48709">
        <ele>117</ele>
        <time>2011-09-08T13:50:18Z</time>
      </trkpt>
      <trkpt lat="49.30006" lon="2.48697">
        <ele>117</ele>
        <time>2011-09-08T13:50:27Z</time>
      </trkpt>
      <trkpt lat="49.30003" lon="2.48683">
        <ele>117</ele>
        <time>2011-09-08T13:50:36Z</time>
      </trkpt>
      <trkpt lat="49.29999" lon="2.4867">
        <ele>117</ele>
        <time>2011-09-08T13:50:46Z</time>
      </trkpt>
      <trkpt lat="49.29995" lon="2.48656">
        <ele>117</ele>
        <time>2011-09-08T13:50:55Z</time>
      </trkpt>
      <trkpt lat="49.29992" lon="2.48643">
        <ele>117</ele>
        <time>2011-09-08T13:51:04Z</time>
      </trkpt>
      <trkpt lat="49.29988" lon="2.48629">
        <ele>117</ele>
        <time>2011-09-08T13:51:13Z</time>
      </trkpt>
      <trkpt lat="49.29985" lon="2.48616">
        <ele>117</ele>
        <time>2011-09-08T13:51:22Z</time>
      </trkpt>
      <trkpt lat="49.29981" lon="2.48603">
        <ele>117</ele>
        <time>2011-09-08T13:51:31Z</time>
      </trkpt>
      <trkpt lat="49.29977" lon="2.48588">
        <ele>117</ele>
        <time>2011-09-08T13:51:41Z</time>
      </trkpt>
      <trkpt lat="49.29974" lon="2.48575">
        <ele>117</ele>
        <time>2011-09-08T13:51:50Z</time>
      </trkpt>
      <trkpt lat="49.29969" lon="2.48562">
        <ele>117</ele>
        <time>2011-09-08T13:51:59Z</time>
      </trkpt>
      <trkpt lat="49.29963" lon="2.48552">
        <ele>117</ele>
        <time>2011-09-08T13:52:08Z</time>
      </trkpt>
      <trkpt lat="49.29954" lon="2.48547">
        <ele>117</ele>
        <time>2011-09-08T13:52:17Z</time>
      </trkpt>
      <trkpt lat="49.29945" lon="2.48542">
        <ele>117</ele>
        <time>2011-09-08T13:52:27Z</time>
      </trkpt>
      <trkpt lat="49.29936" lon="2.48539">
        <ele>117</ele>
        <time>2011-09-08T13:52:37Z</time>
      </trkpt>
      <trkpt lat="49.29927" lon="2.48535">
        <ele>117</ele>
        <time>2011-09-08T13:52:46Z</time>
      </trkpt>
      <trkpt lat="49.29917" lon="2.48532">
        <ele>111</ele>
        <time>2011-09-08T13:52:55Z</time>
      </trkpt>
      <trkpt lat="49.29907" lon="2.48531">
        <ele>111</ele>
        <time>2011-09-08T13:53:04Z</time>
      </trkpt>
      <trkpt lat="49.29898" lon="2.48529">
        <ele>111</ele>
        <time>2011-09-08T13:53:13Z</time>
      </trkpt>
      <trkpt lat="49.29888" lon="2.48526">
        <ele>111</ele>
        <time>2011-09-08T13:53:22Z</time>
      </trkpt>
      <trkpt lat="49.29879" lon="2.48525">
        <ele>111</ele>
        <time>2011-09-08T13:53:30Z</time>
      </trkpt>
      <trkpt lat="49.29869" lon="2.48523">
        <ele>111</ele>
        <time>2011-09-08T13:53:40Z</time>
      </trkpt>
      <trkpt lat="49.2986" lon="2.48523">
        <ele>111</ele>
        <time>2011-09-08T13:53:50Z</time>
      </trkpt>
      <trkpt lat="49.2985" lon="2.48523">
        <ele>111</ele>
        <time>2011-09-08T13:53:59Z</time>
      </trkpt>
      <trkpt lat="49.29841" lon="2.48523">
        <ele>111</ele>
        <time>2011-09-08T13:54:09Z</time>
      </trkpt>
      <trkpt lat="49.29831" lon="2.48524">
        <ele>111</ele>
        <time>2011-09-08T13:54:18Z</time>
      </trkpt>
      <trkpt lat="49.29822" lon="2.48523">
        <ele>111</ele>
        <time>2011-09-08T13:54:27Z</time>
      </trkpt>
      <trkpt lat="49.29813" lon="2.48524">
        <ele>111</ele>
        <time>2011-09-08T13:54:35Z</time>
      </trkpt>
      <trkpt lat="49.29803" lon="2.48524">
        <ele>111</ele>
        <time>2011-09-08T13:54:45Z</time>
      </trkpt>
      <trkpt lat="49.29794" lon="2.48527">
        <ele>111</ele>
        <time>2011-09-08T13:54:55Z</time>
      </trkpt>
      <trkpt lat="49.29784" lon="2.48528">
        <ele>111</ele>
        <time>2011-09-08T13:55:07Z</time>
      </trkpt>
      <trkpt lat="49.29774" lon="2.4853">
        <ele>111</ele>
        <time>2011-09-08T13:55:16Z</time>
      </trkpt>
      <trkpt lat="49.29765" lon="2.4853">
        <ele>111</ele>
        <time>2011-09-08T13:55:24Z</time>
      </trkpt>
      <trkpt lat="49.29755" lon="2.48531">
        <ele>111</ele>
        <time>2011-09-08T13:55:33Z</time>
      </trkpt>
      <trkpt lat="49.29745" lon="2.48532">
        <ele>111</ele>
        <time>2011-09-08T13:55:42Z</time>
      </trkpt>
      <trkpt lat="49.29736" lon="2.48533">
        <ele>111</ele>
        <time>2011-09-08T13:55:52Z</time>
      </trkpt>
      <trkpt lat="49.29726" lon="2.48536">
        <ele>111</ele>
        <time>2011-09-08T13:56:01Z</time>
      </trkpt>
      <trkpt lat="49.29716" lon="2.48537">
        <ele>111</ele>
        <time>2011-09-08T13:56:10Z</time>
      </trkpt>
      <trkpt lat="49.29707" lon="2.48539">
        <ele>111</ele>
        <time>2011-09-08T13:56:19Z</time>
      </trkpt>
      <trkpt lat="49.29697" lon="2.4854">
        <ele>111</ele>
        <time>2011-09-08T13:56:29Z</time>
      </trkpt>
      <trkpt lat="49.29688" lon="2.48541">
        <ele>111</ele>
        <time>2011-09-08T13:56:38Z</time>
      </trkpt>
      <trkpt lat="49.29678" lon="2.48543">
        <ele>111</ele>
        <time>2011-09-08T13:56:48Z</time>
      </trkpt>
      <trkpt lat="49.29669" lon="2.48545">
        <ele>111</ele>
        <time>2011-09-08T13:56:57Z</time>
      </trkpt>
      <trkpt lat="49.29659" lon="2.48546">
        <ele>111</ele>
        <time>2011-09-08T13:57:06Z</time>
      </trkpt>
      <trkpt lat="49.29649" lon="2.48546">
        <ele>111</ele>
        <time>2011-09-08T13:57:15Z</time>
      </trkpt>
      <trkpt lat="49.29639" lon="2.48546">
        <ele>111</ele>
        <time>2011-09-08T13:57:25Z</time>
      </trkpt>
      <trkpt lat="49.29629" lon="2.48548">
        <ele>111</ele>
        <time>2011-09-08T13:57:34Z</time>
      </trkpt>
      <trkpt lat="49.29619" lon="2.48545">
        <ele>111</ele>
        <time>2011-09-08T13:57:44Z</time>
      </trkpt>
      <trkpt lat="49.29609" lon="2.48544">
        <ele>111</ele>
        <time>2011-09-08T13:57:53Z</time>
      </trkpt>
      <trkpt lat="49.296" lon="2.48543">
        <ele>111</ele>
        <time>2011-09-08T13:58:02Z</time>
      </trkpt>
      <trkpt lat="49.2959" lon="2.48541">
        <ele>111</ele>
        <time>2011-09-08T13:58:12Z</time>
      </trkpt>
      <trkpt lat="49.2958" lon="2.48537">
        <ele>103</ele>
        <time>2011-09-08T13:58:21Z</time>
      </trkpt>
      <trkpt lat="49.2957" lon="2.48535">
        <ele>103</ele>
        <time>2011-09-08T13:58:31Z</time>
      </trkpt>
      <trkpt lat="49.29561" lon="2.48532">
        <ele>103</ele>
        <time>2011-09-08T13:58:41Z</time>
      </trkpt>
      <trkpt lat="49.29551" lon="2.4853">
        <ele>103</ele>
        <time>2011-09-08T13:58:50Z</time>
      </trkpt>
      <trkpt lat="49.29541" lon="2.48528">
        <ele>103</ele>
        <time>2011-09-08T13:58:59Z</time>
      </trkpt>
      <trkpt lat="49.29532" lon="2.48524">
        <ele>103</ele>
        <time>2011-09-08T13:59:08Z</time>
      </trkpt>
      <trkpt lat="49.29523" lon="2.48522">
        <ele>103</ele>
        <time>2011-09-08T13:59:17Z</time>
      </trkpt>
      <trkpt lat="49.29514" lon="2.48518">
        <ele>103</ele>
        <time>2011-09-08T13:59:26Z</time>
      </trkpt>
      <trkpt lat="49.29505" lon="2.48514">
        <ele>103</ele>
        <time>2011-09-08T13:59:35Z</time>
      </trkpt>
      <trkpt lat="49.29496" lon="2.48513">
        <ele>103</ele>
        <time>2011-09-08T13:59:44Z</time>
      </trkpt>
      <trkpt lat="49.29487" lon="2.4851">
        <ele>103</ele>
        <time>2011-09-08T13:59:53Z</time>
      </trkpt>
      <trkpt lat="49.29477" lon="2.48507">
        <ele>103</ele>
        <time>2011-09-08T14:00:03Z</time>
      </trkpt>
      <trkpt lat="49.29467" lon="2.48506">
        <ele>103</ele>
        <time>2011-09-08T14:00:13Z</time>
      </trkpt>
      <trkpt lat="49.29457" lon="2.48505">
        <ele>103</ele>
        <time>2011-09-08T14:00:23Z</time>
      </trkpt>
      <trkpt lat="49.29447" lon="2.48502">
        <ele>103</ele>
        <time>2011-09-08T14:00:34Z</time>
      </trkpt>
      <trkpt lat="49.29438" lon="2.48499">
        <ele>103</ele>
        <time>2011-09-08T14:00:45Z</time>
      </trkpt>
      <trkpt lat="49.29428" lon="2.48497">
        <ele>103</ele>
        <time>2011-09-08T14:00:54Z</time>
      </trkpt>
      <trkpt lat="49.2942" lon="2.4849">
        <ele>103</ele>
        <time>2011-09-08T14:01:03Z</time>
      </trkpt>
      <trkpt lat="49.2941" lon="2.48488">
        <ele>103</ele>
        <time>2011-09-08T14:01:13Z</time>
      </trkpt>
      <trkpt lat="49.29401" lon="2.48485">
        <ele>97</ele>
        <time>2011-09-08T14:01:23Z</time>
      </trkpt>
      <trkpt lat="49.29391" lon="2.48482">
        <ele>97</ele>
        <time>2011-09-08T14:01:33Z</time>
      </trkpt>
      <trkpt lat="49.29381" lon="2.4848">
        <ele>97</ele>
        <time>2011-09-08T14:01:43Z</time>
      </trkpt>
      <trkpt lat="49.29372" lon="2.48477">
        <ele>97</ele>
        <time>2011-09-08T14:01:53Z</time>
      </trkpt>
      <trkpt lat="49.29363" lon="2.48473">
        <ele>97</ele>
        <time>2011-09-08T14:02:03Z</time>
      </trkpt>
      <trkpt lat="49.29354" lon="2.48469">
        <ele>104</ele>
        <time>2011-09-08T14:02:11Z</time>
      </trkpt>
      <trkpt lat="49.29344" lon="2.48465">
        <ele>104</ele>
        <time>2011-09-08T14:02:21Z</time>
      </trkpt>
    </trkseg>
  </trk>
</gpx>